CDN972 CYUL-FNBJ
Flight info
| Callsign | CDN972 |
|---|---|
| Flight time | 11h 43m |
| Altitude | 33000 |
| Route | CYUL5 KERVO DCT DUNOM/M083F330 DCT 43N058W 40N048W/M083F350 35N038W 31N031W DCT IXIKU/N0482F350 DCT 23N019W/N0480F370 DCT PE UA600 BKO UA601 TLE UM566 AMSIL/N0479F390 UM566 KELEX UR984 LAG UR603 STM UA400 VNA DCT VBJ |
| Aircraft | B77L/H-SDE1E2E3FGHIJ2J3J4J5M1RWXY/LB1D1 |
Departure
| Time | 2026-04-12 10:21 |
|---|---|
| Airport | Montreal / Pierre Elliott Trudeau International Airport (CYUL) |
Arrival
| Time | 2026-04-12 22:05 |
|---|---|
| Airport | Dr. Antonio Agostinho Neto International Airport (FNBJ) |
| Time | Latitude | Longitude | Altitude | Speed | Heading |
|---|---|---|---|---|---|
| 2026-04-12 10:04 | 45.45981 | -73.75737 | 109 ft | 0 kts | 177° |
| 2026-04-12 10:12 | 45.45990 | -73.75738 | 100 ft | 3 kts | 177° |
| 2026-04-12 10:12 | 45.46009 | -73.75740 | 106 ft | 3 kts | 177° |
| 2026-04-12 10:13 | 45.46029 | -73.75741 | 106 ft | 3 kts | 165° |
| 2026-04-12 10:13 | 45.46046 | -73.75754 | 107 ft | 3 kts | 125° |
| 2026-04-12 10:13 | 45.46053 | -73.75780 | 105 ft | 3 kts | 88° |
| 2026-04-12 10:13 | 45.46053 | -73.75787 | 105 ft | 0 kts | 87° |
| 2026-04-12 10:16 | 45.46054 | -73.75770 | 106 ft | 8 kts | 85° |
| 2026-04-12 10:16 | 45.46061 | -73.75651 | 108 ft | 13 kts | 86° |
| 2026-04-12 10:16 | 45.46066 | -73.75525 | 108 ft | 13 kts | 87° |
| 2026-04-12 10:16 | 45.46098 | -73.75413 | 107 ft | 13 kts | 51° |
| 2026-04-12 10:17 | 45.46142 | -73.75304 | 107 ft | 13 kts | 77° |
| 2026-04-12 10:17 | 45.46147 | -73.75177 | 106 ft | 13 kts | 89° |
| 2026-04-12 10:17 | 45.46148 | -73.75049 | 108 ft | 13 kts | 89° |
| 2026-04-12 10:17 | 45.46153 | -73.74921 | 109 ft | 13 kts | 86° |
| 2026-04-12 10:18 | 45.46159 | -73.74792 | 108 ft | 13 kts | 86° |
| 2026-04-12 10:18 | 45.46164 | -73.74664 | 108 ft | 13 kts | 89° |
| 2026-04-12 10:18 | 45.46131 | -73.74550 | 108 ft | 13 kts | 133° |
| 2026-04-12 10:18 | 45.46063 | -73.74466 | 108 ft | 13 kts | 140° |
| 2026-04-12 10:19 | 45.45996 | -73.74381 | 108 ft | 13 kts | 137° |
| 2026-04-12 10:19 | 45.45926 | -73.74301 | 107 ft | 13 kts | 150° |
| 2026-04-12 10:19 | 45.45857 | -73.74221 | 108 ft | 13 kts | 133° |
| 2026-04-12 10:19 | 45.45802 | -73.74121 | 108 ft | 12 kts | 101° |
| 2026-04-12 10:20 | 45.45816 | -73.74083 | 108 ft | 0 kts | 48° |
| 2026-04-12 10:20 | 45.45817 | -73.74080 | 108 ft | 8 kts | 48° |
| 2026-04-12 10:20 | 45.46065 | -73.73749 | 110 ft | 87 kts | 42° |
| 2026-04-12 10:20 | 45.46676 | -73.72951 | 117 ft | 152 kts | 43° |
| 2026-04-12 10:21 | 45.47572 | -73.71769 | 272 ft | 187 kts | 43° |
| 2026-04-12 10:21 | 45.48543 | -73.70478 | 809 ft | 201 kts | 41° |
| 2026-04-12 10:21 | 45.49637 | -73.69059 | 1282 ft | 221 kts | 40° |
| 2026-04-12 10:21 | 45.50808 | -73.67565 | 1984 ft | 230 kts | 40° |
| 2026-04-12 10:22 | 45.52046 | -73.65992 | 2593 ft | 244 kts | 40° |
| 2026-04-12 10:22 | 45.53334 | -73.64373 | 3442 ft | 249 kts | 39° |
| 2026-04-12 10:22 | 45.54632 | -73.62708 | 4276 ft | 253 kts | 47° |
| 2026-04-12 10:22 | 45.55358 | -73.60396 | 4967 ft | 265 kts | 84° |
| 2026-04-12 10:23 | 45.55313 | -73.57753 | 5708 ft | 271 kts | 91° |
| 2026-04-12 10:23 | 45.55193 | -73.55036 | 6468 ft | 277 kts | 91° |
| 2026-04-12 10:23 | 45.55076 | -73.52258 | 7257 ft | 283 kts | 91° |
| 2026-04-12 10:23 | 45.54966 | -73.49430 | 7980 ft | 289 kts | 91° |
| 2026-04-12 10:24 | 45.54864 | -73.46570 | 8702 ft | 295 kts | 90° |
| 2026-04-12 10:24 | 45.54767 | -73.43621 | 9428 ft | 301 kts | 90° |
| 2026-04-12 10:24 | 45.54674 | -73.40601 | 10162 ft | 307 kts | 89° |
| 2026-04-12 10:24 | 45.54586 | -73.37525 | 10806 ft | 315 kts | 89° |
| 2026-04-12 10:25 | 45.54498 | -73.34296 | 11080 ft | 337 kts | 89° |
| 2026-04-12 10:25 | 45.54408 | -73.30836 | 11273 ft | 362 kts | 89° |
| 2026-04-12 10:25 | 45.54312 | -73.27127 | 11488 ft | 386 kts | 89° |
| 2026-04-12 10:25 | 45.54209 | -73.23226 | 11988 ft | 399 kts | 89° |
| 2026-04-12 10:26 | 45.54100 | -73.19218 | 12634 ft | 408 kts | 89° |
| 2026-04-12 10:26 | 45.53987 | -73.15135 | 13355 ft | 415 kts | 90° |
| 2026-04-12 10:26 | 45.53872 | -73.10983 | 14123 ft | 421 kts | 90° |
| 2026-04-12 10:26 | 45.53756 | -73.06834 | 14801 ft | 427 kts | 90° |
| 2026-04-12 10:27 | 45.53635 | -73.02571 | 15463 ft | 433 kts | 90° |
| 2026-04-12 10:27 | 45.53513 | -72.98251 | 16140 ft | 438 kts | 90° |
| 2026-04-12 10:27 | 45.53387 | -72.93873 | 16806 ft | 444 kts | 90° |
| 2026-04-12 10:27 | 45.53259 | -72.89451 | 17447 ft | 450 kts | 90° |
| 2026-04-12 10:28 | 45.53127 | -72.84963 | 18098 ft | 455 kts | 90° |
| 2026-04-12 10:28 | 45.52992 | -72.80425 | 18744 ft | 461 kts | 90° |
| 2026-04-12 10:28 | 45.52853 | -72.75823 | 19324 ft | 466 kts | 90° |
| 2026-04-12 10:28 | 45.52711 | -72.71189 | 19941 ft | 469 kts | 89° |
| 2026-04-12 10:29 | 45.52566 | -72.66533 | 20557 ft | 472 kts | 89° |
| 2026-04-12 10:29 | 45.52418 | -72.61833 | 21148 ft | 476 kts | 89° |
| 2026-04-12 10:29 | 45.52268 | -72.57105 | 21738 ft | 480 kts | 89° |
| 2026-04-12 10:29 | 45.52114 | -72.52330 | 22308 ft | 484 kts | 89° |
| 2026-04-12 10:30 | 45.51959 | -72.47579 | 22865 ft | 487 kts | 89° |
| 2026-04-12 10:30 | 45.51798 | -72.42720 | 23443 ft | 491 kts | 89° |
| 2026-04-12 10:30 | 45.51635 | -72.37826 | 24016 ft | 495 kts | 89° |
| 2026-04-12 10:30 | 45.51468 | -72.32911 | 24482 ft | 498 kts | 89° |
| 2026-04-12 10:31 | 45.51298 | -72.27956 | 24941 ft | 502 kts | 89° |
| 2026-04-12 10:31 | 45.51124 | -72.22964 | 25392 ft | 505 kts | 89° |
| 2026-04-12 10:31 | 45.50947 | -72.17945 | 25872 ft | 508 kts | 90° |
| 2026-04-12 10:31 | 45.50766 | -72.12896 | 26293 ft | 512 kts | 90° |
| 2026-04-12 10:32 | 45.50582 | -72.07802 | 26718 ft | 516 kts | 90° |
| 2026-04-12 10:32 | 45.50395 | -72.02675 | 27142 ft | 519 kts | 90° |
| 2026-04-12 10:32 | 45.50204 | -71.97522 | 27570 ft | 522 kts | 90° |
| 2026-04-12 10:32 | 45.50010 | -71.92336 | 27990 ft | 526 kts | 90° |
| 2026-04-12 10:33 | 45.49814 | -71.87177 | 28387 ft | 529 kts | 90° |
| 2026-04-12 10:33 | 45.49613 | -71.81927 | 28772 ft | 532 kts | 90° |
| 2026-04-12 10:33 | 45.49406 | -71.76628 | 29179 ft | 536 kts | 90° |
| 2026-04-12 10:33 | 45.49197 | -71.71310 | 29533 ft | 539 kts | 90° |
| 2026-04-12 10:34 | 45.48984 | -71.65959 | 29913 ft | 541 kts | 90° |
| 2026-04-12 10:34 | 45.48767 | -71.60596 | 30406 ft | 541 kts | 91° |
| 2026-04-12 10:34 | 45.48548 | -71.55230 | 30874 ft | 540 kts | 91° |
| 2026-04-12 10:34 | 45.48328 | -71.49897 | 31295 ft | 539 kts | 91° |
| 2026-04-12 10:35 | 45.48108 | -71.44636 | 31679 ft | 539 kts | 91° |
| 2026-04-12 10:35 | 45.47883 | -71.39299 | 32067 ft | 539 kts | 91° |
| 2026-04-12 10:35 | 45.47656 | -71.33951 | 32459 ft | 539 kts | 91° |
| 2026-04-12 10:35 | 45.47426 | -71.28617 | 32834 ft | 539 kts | 91° |
| 2026-04-12 10:36 | 45.47194 | -71.23288 | 33203 ft | 538 kts | 91° |
| 2026-04-12 10:36 | 45.46960 | -71.17949 | 33442 ft | 541 kts | 91° |
| 2026-04-12 10:36 | 45.46722 | -71.12583 | 33480 ft | 544 kts | 92° |
| 2026-04-12 10:37 | 45.46240 | -71.01930 | 33475 ft | 538 kts | 92° |
| 2026-04-12 10:37 | 45.45749 | -70.91309 | 33482 ft | 536 kts | 92° |
| 2026-04-12 10:38 | 45.45251 | -70.80691 | 33475 ft | 536 kts | 92° |
| 2026-04-12 10:38 | 45.44744 | -70.70084 | 33470 ft | 537 kts | 93° |
| 2026-04-12 10:39 | 45.43881 | -70.59502 | 33460 ft | 539 kts | 100° |
| 2026-04-12 10:39 | 45.42479 | -70.49068 | 33447 ft | 541 kts | 101° |
| 2026-04-12 10:40 | 45.41028 | -70.38552 | 33441 ft | 542 kts | 101° |
| 2026-04-12 10:40 | 45.39605 | -70.28009 | 33437 ft | 543 kts | 101° |
| 2026-04-12 10:40 | 45.38892 | -70.22734 | 33147 ft | 544 kts | 94° |
| 2026-04-12 10:41 | 45.38179 | -70.17452 | 33347 ft | 544 kts | 94° |
| 2026-04-12 10:41 | 45.36756 | -70.06787 | 33433 ft | 550 kts | 94° |
| 2026-04-12 10:42 | 45.35313 | -69.96090 | 33424 ft | 552 kts | 94° |
| 2026-04-12 10:42 | 45.33847 | -69.85379 | 33419 ft | 552 kts | 94° |
| 2026-04-12 10:43 | 45.31629 | -69.69343 | 33420 ft | 550 kts | 94° |
| 2026-04-12 10:43 | 45.30151 | -69.58753 | 33410 ft | 548 kts | 94° |
| 2026-04-12 10:44 | 45.28662 | -69.48145 | 33418 ft | 546 kts | 94° |
| 2026-04-12 10:44 | 45.27170 | -69.37576 | 33413 ft | 545 kts | 94° |
| 2026-04-12 10:45 | 45.25666 | -69.27007 | 33425 ft | 545 kts | 94° |
| 2026-04-12 10:45 | 45.24162 | -69.16501 | 33424 ft | 546 kts | 94° |
| 2026-04-12 10:46 | 45.22636 | -69.05932 | 33414 ft | 547 kts | 94° |
| 2026-04-12 10:46 | 45.21099 | -68.95352 | 33418 ft | 548 kts | 94° |
| 2026-04-12 10:47 | 45.19548 | -68.84755 | 33423 ft | 549 kts | 94° |
| 2026-04-12 10:47 | 45.17984 | -68.74138 | 33424 ft | 550 kts | 94° |
| 2026-04-12 10:48 | 45.16416 | -68.63571 | 33418 ft | 551 kts | 94° |
| 2026-04-12 10:48 | 45.14828 | -68.52943 | 33422 ft | 551 kts | 95° |
| 2026-04-12 10:49 | 45.13501 | -68.44114 | 33421 ft | 551 kts | 95° |
| 2026-04-12 10:49 | 45.11898 | -68.33504 | 33411 ft | 551 kts | 95° |
| 2026-04-12 10:50 | 45.10280 | -68.22883 | 33423 ft | 551 kts | 95° |
| 2026-04-12 10:50 | 45.08655 | -68.12277 | 33401 ft | 551 kts | 95° |
| 2026-04-12 10:51 | 45.07022 | -68.01685 | 33409 ft | 551 kts | 95° |
| 2026-04-12 10:51 | 45.05389 | -67.91165 | 33398 ft | 551 kts | 95° |
| 2026-04-12 10:52 | 45.03734 | -67.80576 | 33403 ft | 551 kts | 95° |
| 2026-04-12 10:52 | 45.02072 | -67.70004 | 33402 ft | 551 kts | 95° |
| 2026-04-12 10:53 | 45.00398 | -67.59431 | 33398 ft | 551 kts | 95° |
| 2026-04-12 10:53 | 44.98714 | -67.48855 | 33402 ft | 552 kts | 95° |
| 2026-04-12 10:54 | 44.97018 | -67.38278 | 33392 ft | 552 kts | 96° |
| 2026-04-12 10:54 | 44.95310 | -67.27689 | 33402 ft | 553 kts | 96° |
| 2026-04-12 10:55 | 44.93591 | -67.17098 | 33403 ft | 553 kts | 96° |
| 2026-04-12 10:55 | 44.91862 | -67.06513 | 33400 ft | 554 kts | 96° |
| 2026-04-12 10:56 | 44.90121 | -66.95912 | 33390 ft | 555 kts | 96° |
| 2026-04-12 10:56 | 44.88348 | -66.85307 | 33372 ft | 556 kts | 96° |
| 2026-04-12 10:57 | 44.86562 | -66.74769 | 33368 ft | 556 kts | 97° |
| 2026-04-12 10:57 | 44.84756 | -66.64154 | 33365 ft | 556 kts | 97° |
| 2026-04-12 10:58 | 44.82940 | -66.53526 | 33357 ft | 557 kts | 97° |
| 2026-04-12 10:58 | 44.81117 | -66.42906 | 33342 ft | 557 kts | 97° |
| 2026-04-12 10:59 | 44.79286 | -66.32311 | 33341 ft | 557 kts | 97° |
| 2026-04-12 10:59 | 44.77455 | -66.21783 | 33344 ft | 557 kts | 97° |
| 2026-04-12 11:00 | 44.75603 | -66.11193 | 33347 ft | 557 kts | 97° |
| 2026-04-12 11:00 | 44.73743 | -66.00621 | 33344 ft | 557 kts | 97° |
| 2026-04-12 11:01 | 44.71873 | -65.90052 | 33336 ft | 556 kts | 98° |
| 2026-04-12 11:01 | 44.69994 | -65.79499 | 33336 ft | 556 kts | 98° |
| 2026-04-12 11:02 | 44.68119 | -65.69024 | 33326 ft | 556 kts | 98° |
| 2026-04-12 11:02 | 44.66221 | -65.58483 | 33338 ft | 556 kts | 98° |
| 2026-04-12 11:03 | 44.64315 | -65.47960 | 33328 ft | 556 kts | 98° |
| 2026-04-12 11:03 | 44.62397 | -65.37431 | 33313 ft | 556 kts | 98° |
| 2026-04-12 11:04 | 44.60471 | -65.26914 | 33312 ft | 556 kts | 98° |
| 2026-04-12 11:04 | 44.58548 | -65.16473 | 33299 ft | 556 kts | 98° |
| 2026-04-12 11:05 | 44.56603 | -65.05975 | 33299 ft | 556 kts | 99° |
| 2026-04-12 11:05 | 44.54646 | -64.95471 | 33293 ft | 556 kts | 99° |
| 2026-04-12 11:06 | 44.52680 | -64.84975 | 33284 ft | 556 kts | 99° |
| 2026-04-12 11:06 | 44.50703 | -64.74484 | 33278 ft | 557 kts | 99° |
| 2026-04-12 11:07 | 44.48728 | -64.64055 | 33277 ft | 557 kts | 99° |
| 2026-04-12 11:07 | 44.46729 | -64.53561 | 33262 ft | 558 kts | 99° |
| 2026-04-12 11:08 | 44.44715 | -64.43043 | 33250 ft | 559 kts | 99° |
| 2026-04-12 11:08 | 44.42691 | -64.32535 | 33256 ft | 559 kts | 99° |
| 2026-04-12 11:09 | 44.40658 | -64.22030 | 33251 ft | 560 kts | 100° |
| 2026-04-12 11:09 | 44.38610 | -64.11508 | 33250 ft | 561 kts | 100° |
| 2026-04-12 11:10 | 44.36549 | -64.00980 | 33255 ft | 562 kts | 100° |
| 2026-04-12 11:10 | 44.34473 | -63.90435 | 33264 ft | 562 kts | 100° |
| 2026-04-12 11:11 | 44.32387 | -63.79891 | 33256 ft | 563 kts | 101° |
| 2026-04-12 11:11 | 44.30306 | -63.69429 | 33253 ft | 563 kts | 101° |
| 2026-04-12 11:12 | 44.28199 | -63.58888 | 33256 ft | 563 kts | 101° |
| 2026-04-12 11:12 | 44.26082 | -63.48357 | 33254 ft | 564 kts | 101° |
| 2026-04-12 11:13 | 44.23954 | -63.37826 | 33250 ft | 564 kts | 101° |
| 2026-04-12 11:13 | 44.21815 | -63.27301 | 33257 ft | 564 kts | 102° |
| 2026-04-12 11:14 | 44.19664 | -63.16769 | 33260 ft | 564 kts | 102° |
| 2026-04-12 11:14 | 44.17518 | -63.06314 | 33260 ft | 564 kts | 102° |
| 2026-04-12 11:15 | 44.15345 | -62.95783 | 33247 ft | 564 kts | 103° |
| 2026-04-12 11:15 | 44.13169 | -62.85291 | 33253 ft | 563 kts | 103° |
| 2026-04-12 11:16 | 44.10987 | -62.74821 | 33247 ft | 563 kts | 103° |
| 2026-04-12 11:16 | 44.08794 | -62.64356 | 33246 ft | 563 kts | 104° |
| 2026-04-12 11:17 | 44.06595 | -62.53915 | 33243 ft | 563 kts | 104° |
| 2026-04-12 11:17 | 44.04400 | -62.43547 | 33241 ft | 562 kts | 104° |
| 2026-04-12 11:18 | 44.02185 | -62.33136 | 33239 ft | 562 kts | 105° |
| 2026-04-12 11:18 | 43.99958 | -62.22721 | 33233 ft | 562 kts | 105° |
| 2026-04-12 11:19 | 43.97724 | -62.12326 | 33229 ft | 562 kts | 105° |
| 2026-04-12 11:19 | 43.95481 | -62.01938 | 33227 ft | 561 kts | 105° |
| 2026-04-12 11:20 | 43.93231 | -61.91569 | 33225 ft | 561 kts | 106° |
| 2026-04-12 11:20 | 43.90969 | -61.81199 | 33226 ft | 561 kts | 106° |
| 2026-04-12 11:21 | 43.88697 | -61.70834 | 33219 ft | 561 kts | 107° |
| 2026-04-12 11:21 | 43.86430 | -61.60541 | 33214 ft | 560 kts | 107° |
| 2026-04-12 11:22 | 43.84144 | -61.50207 | 33212 ft | 560 kts | 107° |
| 2026-04-12 11:22 | 43.81851 | -61.39899 | 33212 ft | 560 kts | 107° |
| 2026-04-12 11:23 | 43.79549 | -61.29594 | 33214 ft | 559 kts | 108° |
| 2026-04-12 11:23 | 43.77241 | -61.19316 | 33206 ft | 559 kts | 108° |
| 2026-04-12 11:24 | 43.74924 | -61.09043 | 33200 ft | 559 kts | 108° |
| 2026-04-12 11:24 | 43.72614 | -60.98853 | 33197 ft | 559 kts | 109° |
| 2026-04-12 11:25 | 43.70279 | -60.88599 | 33193 ft | 558 kts | 109° |
| 2026-04-12 11:25 | 43.67937 | -60.78360 | 33190 ft | 558 kts | 109° |
| 2026-04-12 11:26 | 43.65587 | -60.68136 | 33187 ft | 558 kts | 109° |
| 2026-04-12 11:26 | 43.63228 | -60.57922 | 33186 ft | 558 kts | 110° |
| 2026-04-12 11:27 | 43.60861 | -60.47720 | 33183 ft | 558 kts | 110° |
| 2026-04-12 11:27 | 43.58483 | -60.37518 | 33175 ft | 558 kts | 110° |
| 2026-04-12 11:28 | 43.56099 | -60.27333 | 33174 ft | 558 kts | 110° |
| 2026-04-12 11:28 | 43.53718 | -60.17210 | 33176 ft | 558 kts | 111° |
| 2026-04-12 11:29 | 43.51311 | -60.07025 | 33174 ft | 558 kts | 111° |
| 2026-04-12 11:29 | 43.48897 | -59.96852 | 33171 ft | 559 kts | 111° |
| 2026-04-12 11:30 | 43.46881 | -59.88397 | 33171 ft | 559 kts | 111° |
| 2026-04-12 11:30 | 43.44447 | -59.78227 | 33169 ft | 559 kts | 112° |
| 2026-04-12 11:31 | 43.42003 | -59.68059 | 33162 ft | 559 kts | 112° |
| 2026-04-12 11:31 | 43.39565 | -59.57962 | 33158 ft | 559 kts | 112° |
| 2026-04-12 11:32 | 43.37099 | -59.47797 | 33163 ft | 559 kts | 112° |
| 2026-04-12 11:32 | 43.34629 | -59.37659 | 33159 ft | 559 kts | 113° |
| 2026-04-12 11:33 | 43.32149 | -59.27528 | 33159 ft | 559 kts | 113° |
| 2026-04-12 11:33 | 43.29675 | -59.17461 | 33153 ft | 559 kts | 114° |
| 2026-04-12 11:34 | 43.27181 | -59.07358 | 33150 ft | 559 kts | 114° |
| 2026-04-12 11:34 | 43.24680 | -58.97270 | 33151 ft | 558 kts | 114° |
| 2026-04-12 11:35 | 43.22166 | -58.87177 | 33168 ft | 558 kts | 114° |
| 2026-04-12 11:35 | 43.19647 | -58.77107 | 33153 ft | 558 kts | 114° |
| 2026-04-12 11:36 | 43.17121 | -58.67052 | 33145 ft | 558 kts | 115° |
| 2026-04-12 11:36 | 43.14602 | -58.57068 | 33144 ft | 557 kts | 115° |
| 2026-04-12 11:37 | 43.12067 | -58.47062 | 33143 ft | 556 kts | 115° |
| 2026-04-12 11:37 | 43.09525 | -58.37069 | 33132 ft | 555 kts | 115° |
| 2026-04-12 11:38 | 43.06995 | -58.27166 | 33133 ft | 553 kts | 115° |
| 2026-04-12 11:38 | 43.04443 | -58.17221 | 33135 ft | 552 kts | 116° |
| 2026-04-12 11:39 | 43.01891 | -58.07314 | 33136 ft | 551 kts | 116° |
| 2026-04-12 11:39 | 42.99362 | -57.97507 | 33135 ft | 550 kts | 115° |
| 2026-04-12 11:40 | 42.96910 | -57.87595 | 33131 ft | 550 kts | 115° |
| 2026-04-12 11:40 | 42.94507 | -57.77700 | 33123 ft | 549 kts | 115° |
| 2026-04-12 11:41 | 42.92089 | -57.67830 | 33138 ft | 547 kts | 115° |
| 2026-04-12 11:41 | 42.89651 | -57.57989 | 33128 ft | 546 kts | 115° |
| 2026-04-12 11:42 | 42.87223 | -57.48249 | 33118 ft | 545 kts | 115° |
| 2026-04-12 11:43 | 42.83551 | -57.33595 | 33110 ft | 543 kts | 116° |
| 2026-04-12 11:43 | 42.81105 | -57.23878 | 33111 ft | 542 kts | 116° |
| 2026-04-12 11:44 | 42.78652 | -57.14177 | 33113 ft | 541 kts | 116° |
| 2026-04-12 11:44 | 42.76195 | -57.04494 | 33114 ft | 540 kts | 116° |
| 2026-04-12 11:45 | 42.73735 | -56.94844 | 33110 ft | 540 kts | 116° |
| 2026-04-12 11:45 | 42.71282 | -56.85258 | 33110 ft | 539 kts | 116° |
| 2026-04-12 11:46 | 42.68807 | -56.75628 | 33107 ft | 539 kts | 116° |
| 2026-04-12 11:46 | 42.66328 | -56.66017 | 33104 ft | 538 kts | 116° |
| 2026-04-12 11:47 | 42.63843 | -56.56424 | 33100 ft | 538 kts | 116° |
| 2026-04-12 11:47 | 42.61355 | -56.46855 | 33096 ft | 537 kts | 116° |
| 2026-04-12 11:48 | 42.58858 | -56.37292 | 33092 ft | 537 kts | 117° |
| 2026-04-12 11:48 | 42.56356 | -56.27750 | 33092 ft | 536 kts | 117° |
| 2026-04-12 11:49 | 42.53867 | -56.18291 | 33088 ft | 535 kts | 117° |
| 2026-04-12 11:49 | 42.51354 | -56.08778 | 33086 ft | 534 kts | 117° |
| 2026-04-12 11:50 | 42.48840 | -55.99300 | 33100 ft | 534 kts | 117° |
| 2026-04-12 11:50 | 42.46321 | -55.89843 | 33086 ft | 533 kts | 117° |
| 2026-04-12 11:51 | 42.43801 | -55.80415 | 33066 ft | 532 kts | 117° |
| 2026-04-12 11:51 | 42.41295 | -55.71075 | 33071 ft | 531 kts | 118° |
| 2026-04-12 11:52 | 42.38767 | -55.61691 | 33066 ft | 530 kts | 118° |
| 2026-04-12 11:52 | 42.36237 | -55.52335 | 33066 ft | 529 kts | 118° |
| 2026-04-12 11:53 | 42.33705 | -55.43009 | 33069 ft | 528 kts | 118° |
| 2026-04-12 11:53 | 42.31165 | -55.33690 | 33065 ft | 527 kts | 118° |
| 2026-04-12 11:54 | 42.28638 | -55.24449 | 33064 ft | 527 kts | 118° |
| 2026-04-12 11:54 | 42.26091 | -55.15171 | 33066 ft | 526 kts | 119° |
| 2026-04-12 11:55 | 42.23537 | -55.05907 | 33069 ft | 526 kts | 119° |
| 2026-04-12 11:55 | 42.20977 | -54.96650 | 33064 ft | 526 kts | 119° |
| 2026-04-12 11:56 | 42.18413 | -54.87413 | 33061 ft | 525 kts | 119° |
| 2026-04-12 11:56 | 42.15858 | -54.78243 | 33059 ft | 525 kts | 119° |
| 2026-04-12 11:57 | 42.13285 | -54.69042 | 33060 ft | 524 kts | 120° |
| 2026-04-12 11:57 | 42.10708 | -54.59860 | 33066 ft | 524 kts | 120° |
| 2026-04-12 11:58 | 42.08122 | -54.50682 | 33064 ft | 523 kts | 120° |
| 2026-04-12 11:58 | 42.05531 | -54.41518 | 33058 ft | 523 kts | 120° |
| 2026-04-12 11:59 | 42.02950 | -54.32425 | 33051 ft | 523 kts | 120° |
| 2026-04-12 11:59 | 42.00345 | -54.23276 | 33047 ft | 522 kts | 120° |
| 2026-04-12 12:00 | 41.97739 | -54.14157 | 33045 ft | 522 kts | 120° |
| 2026-04-12 12:00 | 41.95143 | -54.05109 | 33046 ft | 522 kts | 120° |
| 2026-04-12 12:01 | 41.92526 | -53.96018 | 33040 ft | 522 kts | 121° |
| 2026-04-12 12:01 | 41.89901 | -53.86931 | 33056 ft | 522 kts | 121° |
| 2026-04-12 12:02 | 41.87263 | -53.77834 | 33049 ft | 522 kts | 121° |
| 2026-04-12 12:02 | 41.84620 | -53.68750 | 33042 ft | 522 kts | 121° |
| 2026-04-12 12:03 | 41.81985 | -53.59724 | 33034 ft | 522 kts | 121° |
| 2026-04-12 12:03 | 41.79327 | -53.50651 | 33037 ft | 522 kts | 121° |
| 2026-04-12 12:04 | 41.76665 | -53.41596 | 33039 ft | 522 kts | 121° |
| 2026-04-12 12:04 | 41.73995 | -53.32548 | 33038 ft | 523 kts | 121° |
| 2026-04-12 12:05 | 41.71325 | -53.23533 | 33043 ft | 523 kts | 121° |
| 2026-04-12 12:05 | 41.68633 | -53.14474 | 33046 ft | 523 kts | 121° |
| 2026-04-12 12:06 | 41.65934 | -53.05421 | 33029 ft | 524 kts | 122° |
| 2026-04-12 12:06 | 41.63231 | -52.96383 | 33030 ft | 524 kts | 122° |
| 2026-04-12 12:07 | 41.60522 | -52.87359 | 33039 ft | 523 kts | 122° |
| 2026-04-12 12:07 | 41.57803 | -52.78333 | 33034 ft | 523 kts | 122° |
| 2026-04-12 12:08 | 41.55079 | -52.69321 | 33024 ft | 523 kts | 122° |
| 2026-04-12 12:08 | 41.52350 | -52.60324 | 33028 ft | 522 kts | 122° |
| 2026-04-12 12:09 | 41.49632 | -52.51391 | 33025 ft | 522 kts | 122° |
| 2026-04-12 12:09 | 41.46890 | -52.42414 | 33022 ft | 522 kts | 122° |
| 2026-04-12 12:10 | 41.44142 | -52.33448 | 33017 ft | 522 kts | 122° |
| 2026-04-12 12:10 | 41.41400 | -52.24529 | 33016 ft | 522 kts | 123° |
| 2026-04-12 12:11 | 41.38640 | -52.15582 | 33011 ft | 522 kts | 123° |
| 2026-04-12 12:11 | 41.35873 | -52.06645 | 33021 ft | 522 kts | 123° |
| 2026-04-12 12:12 | 41.33114 | -51.97761 | 33015 ft | 522 kts | 123° |
| 2026-04-12 12:12 | 41.30334 | -51.88839 | 33014 ft | 522 kts | 123° |
| 2026-04-12 12:13 | 41.27536 | -51.79890 | 33012 ft | 522 kts | 123° |
| 2026-04-12 12:13 | 41.25216 | -51.72489 | 33004 ft | 522 kts | 123° |
| 2026-04-12 12:14 | 41.21960 | -51.62142 | 33004 ft | 522 kts | 123° |
| 2026-04-12 12:14 | 41.19621 | -51.54730 | 33014 ft | 522 kts | 123° |
| 2026-04-12 12:15 | 41.16806 | -51.45839 | 33014 ft | 522 kts | 123° |
| 2026-04-12 12:15 | 41.13981 | -51.36947 | 33015 ft | 522 kts | 124° |
| 2026-04-12 12:16 | 41.11153 | -51.28074 | 33013 ft | 522 kts | 124° |
| 2026-04-12 12:16 | 41.08336 | -51.19262 | 33018 ft | 522 kts | 124° |
| 2026-04-12 12:17 | 41.05493 | -51.10400 | 33020 ft | 522 kts | 124° |
| 2026-04-12 12:17 | 41.02645 | -51.01551 | 33013 ft | 522 kts | 124° |
| 2026-04-12 12:18 | 40.99808 | -50.92763 | 33009 ft | 522 kts | 124° |
| 2026-04-12 12:18 | 40.96950 | -50.83941 | 33034 ft | 522 kts | 124° |
| 2026-04-12 12:19 | 40.94082 | -50.75116 | 33029 ft | 522 kts | 124° |
| 2026-04-12 12:19 | 40.91207 | -50.66296 | 33029 ft | 522 kts | 124° |
| 2026-04-12 12:20 | 40.88321 | -50.57471 | 33032 ft | 522 kts | 125° |
| 2026-04-12 12:20 | 40.85432 | -50.48664 | 33029 ft | 522 kts | 125° |
| 2026-04-12 12:21 | 40.82556 | -50.39924 | 33027 ft | 522 kts | 125° |
| 2026-04-12 12:21 | 40.79652 | -50.31131 | 33027 ft | 522 kts | 125° |
| 2026-04-12 12:22 | 40.76739 | -50.22339 | 33032 ft | 522 kts | 125° |
| 2026-04-12 12:22 | 40.73824 | -50.13564 | 33033 ft | 522 kts | 125° |
| 2026-04-12 12:23 | 40.70921 | -50.04855 | 33034 ft | 522 kts | 126° |
| 2026-04-12 12:23 | 40.67992 | -49.96095 | 33038 ft | 522 kts | 126° |
| 2026-04-12 12:24 | 40.65056 | -49.87341 | 33039 ft | 523 kts | 126° |
| 2026-04-12 12:24 | 40.62111 | -49.78589 | 33028 ft | 523 kts | 126° |
| 2026-04-12 12:25 | 40.59156 | -49.69836 | 33026 ft | 523 kts | 126° |
| 2026-04-12 12:25 | 40.56195 | -49.61089 | 33035 ft | 523 kts | 126° |
| 2026-04-12 12:26 | 40.53229 | -49.52353 | 33045 ft | 523 kts | 127° |
| 2026-04-12 12:26 | 40.50279 | -49.43692 | 33039 ft | 521 kts | 127° |
| 2026-04-12 12:27 | 40.47313 | -49.35006 | 33038 ft | 520 kts | 127° |
| 2026-04-12 12:27 | 40.44345 | -49.26350 | 33087 ft | 521 kts | 127° |
| 2026-04-12 12:27 | 40.42854 | -49.22017 | 33471 ft | 520 kts | 127° |
| 2026-04-12 12:28 | 40.41378 | -49.17716 | 34007 ft | 515 kts | 128° |
| 2026-04-12 12:28 | 40.39908 | -49.13432 | 34455 ft | 511 kts | 128° |
| 2026-04-12 12:28 | 40.38443 | -49.09184 | 34734 ft | 511 kts | 128° |
| 2026-04-12 12:28 | 40.36989 | -49.04988 | 34930 ft | 513 kts | 128° |
| 2026-04-12 12:29 | 40.35504 | -49.00716 | 34985 ft | 516 kts | 128° |
| 2026-04-12 12:29 | 40.32533 | -48.92165 | 35041 ft | 515 kts | 127° |
| 2026-04-12 12:30 | 40.29571 | -48.83637 | 35056 ft | 512 kts | 127° |
| 2026-04-12 12:30 | 40.26611 | -48.75150 | 35053 ft | 511 kts | 127° |
| 2026-04-12 12:31 | 40.23666 | -48.66738 | 35043 ft | 510 kts | 127° |
| 2026-04-12 12:31 | 40.20696 | -48.58282 | 35049 ft | 510 kts | 127° |
| 2026-04-12 12:32 | 40.17726 | -48.49850 | 35056 ft | 510 kts | 127° |
| 2026-04-12 12:32 | 40.15249 | -48.42835 | 35056 ft | 511 kts | 127° |
| 2026-04-12 12:33 | 40.11758 | -48.32977 | 35053 ft | 511 kts | 127° |
| 2026-04-12 12:33 | 40.08780 | -48.24591 | 35056 ft | 512 kts | 127° |
| 2026-04-12 12:34 | 40.05775 | -48.16153 | 35067 ft | 512 kts | 127° |
| 2026-04-12 12:34 | 40.02768 | -48.07730 | 35062 ft | 512 kts | 126° |
| 2026-04-12 12:35 | 39.99733 | -47.99325 | 35053 ft | 509 kts | 128° |
| 2026-04-12 12:35 | 39.96354 | -47.91284 | 35059 ft | 504 kts | 130° |
| 2026-04-12 12:36 | 39.92924 | -47.83384 | 35054 ft | 504 kts | 130° |
| 2026-04-12 12:36 | 39.89473 | -47.75421 | 35050 ft | 505 kts | 130° |
| 2026-04-12 12:37 | 39.86024 | -47.67423 | 35051 ft | 506 kts | 130° |
| 2026-04-12 12:37 | 39.82596 | -47.59473 | 35058 ft | 507 kts | 130° |
| 2026-04-12 12:38 | 39.79134 | -47.51465 | 35054 ft | 508 kts | 130° |
| 2026-04-12 12:38 | 39.75661 | -47.43451 | 35058 ft | 509 kts | 130° |
| 2026-04-12 12:39 | 39.72172 | -47.35426 | 35054 ft | 510 kts | 130° |
| 2026-04-12 12:39 | 39.68671 | -47.27395 | 35052 ft | 510 kts | 130° |
| 2026-04-12 12:40 | 39.65164 | -47.19372 | 35048 ft | 511 kts | 130° |
| 2026-04-12 12:40 | 39.61668 | -47.11393 | 35042 ft | 512 kts | 130° |
| 2026-04-12 12:41 | 39.58136 | -47.03352 | 35054 ft | 513 kts | 129° |
| 2026-04-12 12:41 | 39.54590 | -46.95300 | 35054 ft | 514 kts | 129° |
| 2026-04-12 12:42 | 39.51032 | -46.87243 | 35055 ft | 515 kts | 129° |
| 2026-04-12 12:42 | 39.45679 | -46.75157 | 35057 ft | 516 kts | 129° |
| 2026-04-12 12:43 | 39.42094 | -46.67092 | 35055 ft | 517 kts | 129° |
| 2026-04-12 12:43 | 39.38522 | -46.59075 | 35052 ft | 517 kts | 129° |
| 2026-04-12 12:44 | 39.34924 | -46.51019 | 35039 ft | 518 kts | 129° |
| 2026-04-12 12:44 | 39.31317 | -46.42966 | 35052 ft | 518 kts | 129° |
| 2026-04-12 12:45 | 39.27704 | -46.34918 | 35043 ft | 518 kts | 129° |
| 2026-04-12 12:45 | 39.24078 | -46.26863 | 35040 ft | 517 kts | 129° |
| 2026-04-12 12:46 | 39.20482 | -46.18894 | 35032 ft | 516 kts | 129° |
| 2026-04-12 12:46 | 39.16869 | -46.10906 | 35036 ft | 514 kts | 129° |
| 2026-04-12 12:47 | 39.13268 | -46.02965 | 35035 ft | 512 kts | 129° |
| 2026-04-12 12:47 | 39.09671 | -45.95058 | 35028 ft | 513 kts | 129° |
| 2026-04-12 12:48 | 39.06060 | -45.87140 | 35032 ft | 511 kts | 129° |
| 2026-04-12 12:48 | 39.02462 | -45.79266 | 35047 ft | 509 kts | 129° |
| 2026-04-12 12:49 | 38.98866 | -45.71416 | 35041 ft | 508 kts | 129° |
| 2026-04-12 12:49 | 38.95298 | -45.63651 | 35051 ft | 508 kts | 129° |
| 2026-04-12 12:50 | 38.91683 | -45.55805 | 35053 ft | 511 kts | 129° |
| 2026-04-12 12:50 | 38.88058 | -45.47950 | 35041 ft | 509 kts | 128° |
| 2026-04-12 12:51 | 38.84449 | -45.40146 | 35047 ft | 508 kts | 128° |
| 2026-04-12 12:51 | 38.80839 | -45.32361 | 35059 ft | 507 kts | 128° |
| 2026-04-12 12:52 | 38.77226 | -45.24594 | 35066 ft | 507 kts | 128° |
| 2026-04-12 12:52 | 38.73610 | -45.16840 | 35053 ft | 507 kts | 128° |
| 2026-04-12 12:53 | 38.70010 | -45.09135 | 35069 ft | 507 kts | 128° |
| 2026-04-12 12:53 | 38.66381 | -45.01385 | 35075 ft | 507 kts | 128° |
| 2026-04-12 12:54 | 38.62747 | -44.93645 | 35083 ft | 507 kts | 128° |
| 2026-04-12 12:54 | 38.59102 | -44.85902 | 35079 ft | 508 kts | 128° |
| 2026-04-12 12:55 | 38.55451 | -44.78162 | 35097 ft | 508 kts | 128° |
| 2026-04-12 12:55 | 38.51811 | -44.70467 | 35087 ft | 508 kts | 128° |
| 2026-04-12 12:56 | 38.48151 | -44.62746 | 35092 ft | 508 kts | 128° |
| 2026-04-12 12:56 | 38.45107 | -44.56339 | 35099 ft | 508 kts | 128° |
| 2026-04-12 12:57 | 38.41435 | -44.48625 | 35104 ft | 507 kts | 128° |
| 2026-04-12 12:57 | 38.37767 | -44.40939 | 35111 ft | 507 kts | 128° |
| 2026-04-12 12:58 | 38.34090 | -44.33254 | 35112 ft | 507 kts | 128° |
| 2026-04-12 12:58 | 38.30413 | -44.25587 | 35137 ft | 507 kts | 128° |
| 2026-04-12 12:59 | 38.26726 | -44.17918 | 35118 ft | 507 kts | 128° |
| 2026-04-12 12:59 | 38.23038 | -44.10264 | 35112 ft | 507 kts | 128° |
| 2026-04-12 13:00 | 38.19376 | -44.02680 | 35133 ft | 506 kts | 128° |
| 2026-04-12 13:00 | 38.15682 | -43.95049 | 35136 ft | 506 kts | 128° |
| 2026-04-12 13:01 | 38.11988 | -43.87437 | 35139 ft | 505 kts | 128° |
| 2026-04-12 13:01 | 38.08316 | -43.79888 | 35144 ft | 505 kts | 128° |
| 2026-04-12 13:02 | 38.04618 | -43.72303 | 35147 ft | 505 kts | 128° |
| 2026-04-12 13:02 | 38.00920 | -43.64735 | 35151 ft | 505 kts | 128° |
| 2026-04-12 13:03 | 37.97214 | -43.57168 | 35158 ft | 505 kts | 128° |
| 2026-04-12 13:03 | 37.93505 | -43.49614 | 35165 ft | 505 kts | 128° |
| 2026-04-12 13:04 | 37.89788 | -43.42058 | 35165 ft | 505 kts | 128° |
| 2026-04-12 13:04 | 37.86065 | -43.34510 | 35169 ft | 505 kts | 128° |
| 2026-04-12 13:05 | 37.82355 | -43.27005 | 35178 ft | 506 kts | 128° |
| 2026-04-12 13:05 | 37.78612 | -43.19450 | 35180 ft | 506 kts | 128° |
| 2026-04-12 13:06 | 37.74870 | -43.11915 | 35180 ft | 506 kts | 128° |
| 2026-04-12 13:06 | 37.71122 | -43.04385 | 35187 ft | 506 kts | 128° |
| 2026-04-12 13:07 | 37.67367 | -42.96858 | 35192 ft | 506 kts | 127° |
| 2026-04-12 13:07 | 37.63606 | -42.89335 | 35197 ft | 506 kts | 127° |
| 2026-04-12 13:08 | 37.59842 | -42.81825 | 35202 ft | 506 kts | 127° |
| 2026-04-12 13:08 | 37.56096 | -42.74367 | 35205 ft | 506 kts | 127° |
| 2026-04-12 13:09 | 37.52327 | -42.66881 | 35207 ft | 506 kts | 127° |
| 2026-04-12 13:09 | 37.48549 | -42.59394 | 35224 ft | 506 kts | 127° |
| 2026-04-12 13:10 | 37.44768 | -42.51917 | 35226 ft | 506 kts | 127° |
| 2026-04-12 13:10 | 37.40987 | -42.44456 | 35214 ft | 506 kts | 127° |
| 2026-04-12 13:11 | 37.37202 | -42.37005 | 35220 ft | 505 kts | 127° |
| 2026-04-12 13:11 | 37.33412 | -42.29561 | 35227 ft | 505 kts | 127° |
| 2026-04-12 13:12 | 37.29616 | -42.22123 | 35231 ft | 505 kts | 127° |
| 2026-04-12 13:12 | 37.25823 | -42.14705 | 35230 ft | 505 kts | 127° |
| 2026-04-12 13:13 | 37.22045 | -42.07335 | 35235 ft | 505 kts | 127° |
| 2026-04-12 13:13 | 37.18240 | -41.99928 | 35241 ft | 504 kts | 127° |
| 2026-04-12 13:14 | 37.14432 | -41.92531 | 35247 ft | 504 kts | 127° |
| 2026-04-12 13:14 | 37.10621 | -41.85146 | 35254 ft | 505 kts | 127° |
| 2026-04-12 13:15 | 37.06799 | -41.77755 | 35254 ft | 505 kts | 127° |
| 2026-04-12 13:15 | 37.02999 | -41.70422 | 35253 ft | 505 kts | 127° |
| 2026-04-12 13:16 | 36.99168 | -41.63046 | 35256 ft | 505 kts | 127° |
| 2026-04-12 13:16 | 36.95337 | -41.55686 | 35264 ft | 505 kts | 127° |
| 2026-04-12 13:17 | 36.91499 | -41.48329 | 35268 ft | 505 kts | 127° |
| 2026-04-12 13:17 | 36.87676 | -41.41017 | 35268 ft | 504 kts | 127° |
| 2026-04-12 13:18 | 36.83836 | -41.33687 | 35273 ft | 504 kts | 127° |
| 2026-04-12 13:19 | 36.78071 | -41.22714 | 35278 ft | 504 kts | 127° |
| 2026-04-12 13:19 | 36.74217 | -41.15399 | 35277 ft | 503 kts | 128° |
| 2026-04-12 13:20 | 36.70366 | -41.08104 | 35283 ft | 503 kts | 128° |
| 2026-04-12 13:20 | 36.66539 | -41.00870 | 35287 ft | 503 kts | 128° |
| 2026-04-12 13:21 | 36.62681 | -40.93595 | 35288 ft | 503 kts | 128° |
| 2026-04-12 13:21 | 36.58828 | -40.86342 | 35295 ft | 502 kts | 128° |
| 2026-04-12 13:22 | 36.54959 | -40.79077 | 35295 ft | 502 kts | 128° |
| 2026-04-12 13:22 | 36.51094 | -40.71833 | 35294 ft | 502 kts | 128° |
| 2026-04-12 13:23 | 36.47229 | -40.64607 | 35302 ft | 502 kts | 128° |
| 2026-04-12 13:23 | 36.43382 | -40.57428 | 35302 ft | 502 kts | 127° |
| 2026-04-12 13:24 | 36.39513 | -40.50223 | 35308 ft | 501 kts | 127° |
| 2026-04-12 13:24 | 36.35639 | -40.43025 | 35311 ft | 501 kts | 127° |
| 2026-04-12 13:25 | 36.31758 | -40.35828 | 35309 ft | 501 kts | 127° |
| 2026-04-12 13:25 | 36.27876 | -40.28646 | 35313 ft | 501 kts | 127° |
| 2026-04-12 13:26 | 36.24015 | -40.21518 | 35314 ft | 501 kts | 127° |
| 2026-04-12 13:26 | 36.20117 | -40.14334 | 35321 ft | 501 kts | 127° |
| 2026-04-12 13:27 | 36.16222 | -40.07172 | 35323 ft | 502 kts | 127° |
| 2026-04-12 13:27 | 36.12313 | -40.00001 | 35322 ft | 502 kts | 127° |
| 2026-04-12 13:28 | 36.09062 | -39.94046 | 35327 ft | 502 kts | 127° |
| 2026-04-12 13:28 | 36.04504 | -39.85716 | 35331 ft | 503 kts | 127° |
| 2026-04-12 13:29 | 36.00576 | -39.78553 | 35335 ft | 504 kts | 127° |
| 2026-04-12 13:29 | 35.96637 | -39.71385 | 35338 ft | 504 kts | 127° |
| 2026-04-12 13:30 | 35.92685 | -39.64208 | 35341 ft | 505 kts | 127° |
| 2026-04-12 13:30 | 35.88756 | -39.57089 | 35339 ft | 505 kts | 127° |
| 2026-04-12 13:31 | 35.84800 | -39.49935 | 35344 ft | 505 kts | 127° |
| 2026-04-12 13:31 | 35.80831 | -39.42771 | 35346 ft | 504 kts | 127° |
| 2026-04-12 13:32 | 35.76871 | -39.35639 | 35347 ft | 504 kts | 127° |
| 2026-04-12 13:32 | 35.72910 | -39.28519 | 35367 ft | 503 kts | 127° |
| 2026-04-12 13:33 | 35.68953 | -39.21423 | 35348 ft | 502 kts | 127° |
| 2026-04-12 13:33 | 35.65022 | -39.14386 | 35351 ft | 502 kts | 127° |
| 2026-04-12 13:34 | 35.61069 | -39.07325 | 35366 ft | 501 kts | 127° |
| 2026-04-12 13:34 | 35.57111 | -39.00269 | 35369 ft | 500 kts | 127° |
| 2026-04-12 13:35 | 35.53155 | -38.93230 | 35364 ft | 500 kts | 127° |
| 2026-04-12 13:35 | 35.49221 | -38.86247 | 35372 ft | 500 kts | 127° |
| 2026-04-12 13:36 | 35.45259 | -38.79226 | 35374 ft | 500 kts | 127° |
| 2026-04-12 13:36 | 35.41963 | -38.73397 | 35375 ft | 500 kts | 127° |
| 2026-04-12 13:37 | 35.37330 | -38.65218 | 35376 ft | 499 kts | 127° |
| 2026-04-12 13:37 | 35.33358 | -38.58222 | 35374 ft | 499 kts | 127° |
| 2026-04-12 13:38 | 35.29390 | -38.51247 | 35379 ft | 499 kts | 127° |
| 2026-04-12 13:38 | 35.25438 | -38.44314 | 35379 ft | 499 kts | 127° |
| 2026-04-12 13:39 | 35.22106 | -38.38477 | 35384 ft | 499 kts | 127° |
| 2026-04-12 13:39 | 35.18131 | -38.31529 | 35388 ft | 499 kts | 127° |
| 2026-04-12 13:40 | 35.14168 | -38.24615 | 35391 ft | 498 kts | 127° |
| 2026-04-12 13:40 | 35.10188 | -38.17685 | 35395 ft | 498 kts | 127° |
| 2026-04-12 13:41 | 35.06212 | -38.10775 | 35392 ft | 497 kts | 127° |
| 2026-04-12 13:41 | 35.02233 | -38.03870 | 35394 ft | 497 kts | 127° |
| 2026-04-12 13:42 | 34.98284 | -37.96940 | 35395 ft | 497 kts | 125° |
| 2026-04-12 13:42 | 34.94579 | -37.89819 | 35401 ft | 497 kts | 123° |
| 2026-04-12 13:43 | 34.90938 | -37.82657 | 35401 ft | 497 kts | 123° |
| 2026-04-12 13:43 | 34.87289 | -37.75573 | 35401 ft | 497 kts | 123° |
| 2026-04-12 13:44 | 34.83584 | -37.68466 | 35406 ft | 496 kts | 123° |
| 2026-04-12 13:44 | 34.79864 | -37.61368 | 35405 ft | 496 kts | 124° |
| 2026-04-12 13:45 | 34.76148 | -37.54288 | 35406 ft | 496 kts | 124° |
| 2026-04-12 13:45 | 34.72430 | -37.47217 | 35410 ft | 496 kts | 124° |
| 2026-04-12 13:46 | 34.68710 | -37.40154 | 35411 ft | 496 kts | 124° |
| 2026-04-12 13:46 | 34.65009 | -37.33138 | 35414 ft | 496 kts | 124° |
| 2026-04-12 13:47 | 34.61281 | -37.26087 | 35415 ft | 495 kts | 124° |
| 2026-04-12 13:47 | 34.57555 | -37.19054 | 35416 ft | 495 kts | 124° |
| 2026-04-12 13:48 | 34.53826 | -37.12028 | 35418 ft | 495 kts | 124° |
| 2026-04-12 13:48 | 34.50097 | -37.05017 | 35419 ft | 494 kts | 124° |
| 2026-04-12 13:49 | 34.46367 | -36.98017 | 35420 ft | 494 kts | 124° |
| 2026-04-12 13:49 | 34.42636 | -36.91029 | 35419 ft | 493 kts | 124° |
| 2026-04-12 13:50 | 34.38909 | -36.84064 | 35427 ft | 493 kts | 124° |
| 2026-04-12 13:50 | 34.35196 | -36.77137 | 35426 ft | 492 kts | 124° |
| 2026-04-12 13:51 | 34.31465 | -36.70190 | 35425 ft | 492 kts | 124° |
| 2026-04-12 13:51 | 34.27736 | -36.63260 | 35426 ft | 491 kts | 124° |
| 2026-04-12 13:52 | 34.24005 | -36.56340 | 35431 ft | 491 kts | 124° |
| 2026-04-12 13:52 | 34.20273 | -36.49431 | 35427 ft | 490 kts | 124° |
| 2026-04-12 13:53 | 34.16541 | -36.42534 | 35433 ft | 490 kts | 124° |
| 2026-04-12 13:53 | 34.12805 | -36.35646 | 35430 ft | 489 kts | 124° |
| 2026-04-12 13:54 | 34.09096 | -36.28819 | 35434 ft | 489 kts | 124° |
| 2026-04-12 13:54 | 34.05364 | -36.21962 | 35433 ft | 488 kts | 124° |
| 2026-04-12 13:55 | 34.01631 | -36.15117 | 35433 ft | 487 kts | 124° |
| 2026-04-12 13:55 | 33.97902 | -36.08293 | 35433 ft | 486 kts | 124° |
| 2026-04-12 13:56 | 33.94203 | -36.01536 | 35436 ft | 485 kts | 124° |
| 2026-04-12 13:56 | 33.90483 | -35.94752 | 35440 ft | 484 kts | 124° |
| 2026-04-12 13:57 | 33.86765 | -35.87987 | 35442 ft | 484 kts | 124° |
| 2026-04-12 13:57 | 33.83053 | -35.81245 | 35438 ft | 483 kts | 124° |
| 2026-04-12 13:58 | 33.79338 | -35.74508 | 35438 ft | 482 kts | 124° |
| 2026-04-12 13:58 | 33.75628 | -35.67794 | 35441 ft | 482 kts | 124° |
| 2026-04-12 13:59 | 33.71938 | -35.61130 | 35440 ft | 482 kts | 124° |
| 2026-04-12 13:59 | 33.68223 | -35.54431 | 35447 ft | 482 kts | 124° |
| 2026-04-12 14:00 | 33.64502 | -35.47732 | 35440 ft | 481 kts | 124° |
| 2026-04-12 14:00 | 33.60775 | -35.41037 | 35440 ft | 481 kts | 124° |
| 2026-04-12 14:01 | 33.57057 | -35.34369 | 35449 ft | 481 kts | 124° |
| 2026-04-12 14:01 | 33.53354 | -35.27741 | 35450 ft | 481 kts | 124° |
| 2026-04-12 14:02 | 33.49631 | -35.21090 | 35452 ft | 480 kts | 124° |
| 2026-04-12 14:02 | 33.45905 | -35.14443 | 35450 ft | 480 kts | 124° |
| 2026-04-12 14:03 | 33.42176 | -35.07805 | 35447 ft | 480 kts | 124° |
| 2026-04-12 14:03 | 33.38448 | -35.01181 | 35452 ft | 479 kts | 124° |
| 2026-04-12 14:04 | 33.34720 | -34.94567 | 35452 ft | 479 kts | 124° |
| 2026-04-12 14:04 | 33.30986 | -34.87955 | 35453 ft | 479 kts | 124° |
| 2026-04-12 14:05 | 33.27257 | -34.81363 | 35454 ft | 479 kts | 124° |
| 2026-04-12 14:05 | 33.21683 | -34.71533 | 35460 ft | 478 kts | 124° |
| 2026-04-12 14:06 | 33.17944 | -34.64954 | 35451 ft | 478 kts | 124° |
| 2026-04-12 14:06 | 33.14200 | -34.58377 | 35458 ft | 478 kts | 124° |
| 2026-04-12 14:07 | 33.10451 | -34.51804 | 35455 ft | 478 kts | 124° |
| 2026-04-12 14:07 | 33.06701 | -34.45240 | 35454 ft | 478 kts | 124° |
| 2026-04-12 14:08 | 33.02972 | -34.38725 | 35452 ft | 478 kts | 124° |
| 2026-04-12 14:08 | 32.99215 | -34.32171 | 35456 ft | 478 kts | 124° |
| 2026-04-12 14:09 | 32.95452 | -34.25620 | 35454 ft | 478 kts | 124° |
| 2026-04-12 14:09 | 32.91688 | -34.19077 | 35451 ft | 478 kts | 124° |
| 2026-04-12 14:10 | 32.87924 | -34.12546 | 35457 ft | 478 kts | 124° |
| 2026-04-12 14:10 | 32.84177 | -34.06057 | 35454 ft | 478 kts | 124° |
| 2026-04-12 14:11 | 32.80404 | -33.99533 | 35457 ft | 478 kts | 124° |
| 2026-04-12 14:11 | 32.76630 | -33.93019 | 35452 ft | 478 kts | 124° |
| 2026-04-12 14:12 | 32.72854 | -33.86514 | 35455 ft | 478 kts | 124° |
| 2026-04-12 14:12 | 32.69069 | -33.80005 | 35455 ft | 478 kts | 124° |
| 2026-04-12 14:13 | 32.65283 | -33.73504 | 35458 ft | 478 kts | 124° |
| 2026-04-12 14:13 | 32.61493 | -33.67008 | 35456 ft | 479 kts | 124° |
| 2026-04-12 14:14 | 32.57696 | -33.60512 | 35458 ft | 479 kts | 124° |
| 2026-04-12 14:14 | 32.53901 | -33.54028 | 35457 ft | 479 kts | 124° |
| 2026-04-12 14:15 | 32.50099 | -33.47543 | 35455 ft | 479 kts | 124° |
| 2026-04-12 14:15 | 32.46319 | -33.41112 | 35457 ft | 479 kts | 124° |
| 2026-04-12 14:16 | 32.42507 | -33.34634 | 35458 ft | 479 kts | 124° |
| 2026-04-12 14:16 | 32.38691 | -33.28160 | 35461 ft | 479 kts | 124° |
| 2026-04-12 14:17 | 32.34873 | -33.21693 | 35455 ft | 479 kts | 124° |
| 2026-04-12 14:17 | 32.31052 | -33.15233 | 35456 ft | 479 kts | 124° |
| 2026-04-12 14:18 | 32.27221 | -33.08768 | 35460 ft | 479 kts | 124° |
| 2026-04-12 14:18 | 32.23406 | -33.02340 | 35459 ft | 479 kts | 124° |
| 2026-04-12 14:19 | 32.20215 | -32.96972 | 35457 ft | 479 kts | 124° |
| 2026-04-12 14:19 | 32.15757 | -32.89484 | 35458 ft | 479 kts | 124° |
| 2026-04-12 14:20 | 32.12539 | -32.84091 | 35458 ft | 479 kts | 124° |
| 2026-04-12 14:20 | 32.08698 | -32.77661 | 35455 ft | 479 kts | 124° |
| 2026-04-12 14:21 | 32.04873 | -32.71268 | 35456 ft | 479 kts | 124° |
| 2026-04-12 14:21 | 32.01022 | -32.64841 | 35456 ft | 479 kts | 124° |
| 2026-04-12 14:22 | 31.97178 | -32.58439 | 35457 ft | 479 kts | 124° |
| 2026-04-12 14:22 | 31.93327 | -32.52037 | 35452 ft | 478 kts | 124° |
| 2026-04-12 14:23 | 31.89504 | -32.45690 | 35454 ft | 478 kts | 124° |
| 2026-04-12 14:23 | 31.85641 | -32.39288 | 35454 ft | 478 kts | 124° |
| 2026-04-12 14:24 | 31.81787 | -32.32911 | 35454 ft | 478 kts | 124° |
| 2026-04-12 14:24 | 31.77927 | -32.26535 | 35450 ft | 478 kts | 124° |
| 2026-04-12 14:25 | 31.74067 | -32.20169 | 35455 ft | 478 kts | 124° |
| 2026-04-12 14:25 | 31.70224 | -32.13844 | 35452 ft | 478 kts | 124° |
| 2026-04-12 14:26 | 31.66349 | -32.07474 | 35455 ft | 479 kts | 124° |
| 2026-04-12 14:26 | 31.62475 | -32.01117 | 35451 ft | 479 kts | 124° |
| 2026-04-12 14:27 | 31.58599 | -31.94768 | 35449 ft | 479 kts | 124° |
| 2026-04-12 14:27 | 31.54713 | -31.88412 | 35452 ft | 479 kts | 124° |
| 2026-04-12 14:28 | 31.50853 | -31.82108 | 35452 ft | 479 kts | 124° |
| 2026-04-12 14:28 | 31.46960 | -31.75761 | 35450 ft | 479 kts | 124° |
| 2026-04-12 14:29 | 31.43065 | -31.69423 | 35451 ft | 479 kts | 124° |
| 2026-04-12 14:29 | 31.39168 | -31.63091 | 35449 ft | 479 kts | 124° |
| 2026-04-12 14:30 | 31.35272 | -31.56769 | 35450 ft | 479 kts | 124° |
| 2026-04-12 14:30 | 31.31395 | -31.50491 | 35449 ft | 479 kts | 124° |
| 2026-04-12 14:31 | 31.27489 | -31.44174 | 35451 ft | 479 kts | 124° |
| 2026-04-12 14:31 | 31.23574 | -31.37853 | 35448 ft | 479 kts | 124° |
| 2026-04-12 14:32 | 31.19655 | -31.31536 | 35449 ft | 479 kts | 124° |
| 2026-04-12 14:32 | 31.15739 | -31.25234 | 35450 ft | 479 kts | 124° |
| 2026-04-12 14:33 | 31.11839 | -31.18968 | 35443 ft | 480 kts | 124° |
| 2026-04-12 14:33 | 31.07913 | -31.12669 | 35449 ft | 480 kts | 124° |
| 2026-04-12 14:34 | 31.03986 | -31.06377 | 35449 ft | 480 kts | 124° |
| 2026-04-12 14:34 | 31.00057 | -31.00093 | 35449 ft | 480 kts | 124° |
| 2026-04-12 14:35 | 30.96130 | -30.93783 | 35451 ft | 479 kts | 124° |
| 2026-04-12 14:35 | 30.92223 | -30.87478 | 35443 ft | 479 kts | 124° |
| 2026-04-12 14:36 | 30.88340 | -30.81221 | 35447 ft | 479 kts | 124° |
| 2026-04-12 14:36 | 30.84430 | -30.74934 | 35441 ft | 479 kts | 124° |
| 2026-04-12 14:37 | 30.80513 | -30.68651 | 35443 ft | 479 kts | 124° |
| 2026-04-12 14:37 | 30.76590 | -30.62366 | 35440 ft | 479 kts | 124° |
| 2026-04-12 14:38 | 30.72671 | -30.56099 | 35441 ft | 479 kts | 124° |
| 2026-04-12 14:38 | 30.68775 | -30.49878 | 35436 ft | 479 kts | 124° |
| 2026-04-12 14:39 | 30.64857 | -30.43631 | 35437 ft | 479 kts | 124° |
| 2026-04-12 14:39 | 30.60930 | -30.37381 | 35436 ft | 478 kts | 124° |
| 2026-04-12 14:40 | 30.57001 | -30.31138 | 35440 ft | 478 kts | 124° |
| 2026-04-12 14:40 | 30.53094 | -30.24939 | 35435 ft | 478 kts | 124° |
| 2026-04-12 14:41 | 30.49167 | -30.18716 | 35434 ft | 478 kts | 124° |
| 2026-04-12 14:41 | 30.45236 | -30.12498 | 35434 ft | 477 kts | 124° |
| 2026-04-12 14:42 | 30.41303 | -30.06287 | 35435 ft | 477 kts | 124° |
| 2026-04-12 14:42 | 30.37374 | -30.00091 | 35432 ft | 477 kts | 124° |
| 2026-04-12 14:43 | 30.33465 | -29.93936 | 35434 ft | 477 kts | 124° |
| 2026-04-12 14:43 | 30.29538 | -29.87763 | 35435 ft | 476 kts | 124° |
| 2026-04-12 14:44 | 30.25603 | -29.81586 | 35437 ft | 476 kts | 124° |
| 2026-04-12 14:44 | 30.21666 | -29.75417 | 35418 ft | 476 kts | 124° |
| 2026-04-12 14:45 | 30.17734 | -29.69264 | 35434 ft | 476 kts | 124° |
| 2026-04-12 14:45 | 30.13801 | -29.63118 | 35433 ft | 475 kts | 124° |
| 2026-04-12 14:46 | 30.09865 | -29.56978 | 35429 ft | 475 kts | 124° |
| 2026-04-12 14:46 | 30.05949 | -29.50878 | 35435 ft | 475 kts | 124° |
| 2026-04-12 14:47 | 30.02012 | -29.44755 | 35417 ft | 475 kts | 124° |
| 2026-04-12 14:47 | 29.98069 | -29.38631 | 35414 ft | 475 kts | 124° |
| 2026-04-12 14:48 | 29.94132 | -29.32526 | 35414 ft | 474 kts | 124° |
| 2026-04-12 14:48 | 29.90190 | -29.26424 | 35418 ft | 474 kts | 124° |
| 2026-04-12 14:49 | 29.86246 | -29.20325 | 35418 ft | 474 kts | 124° |
| 2026-04-12 14:49 | 29.82327 | -29.14276 | 35418 ft | 474 kts | 124° |
| 2026-04-12 14:50 | 29.78382 | -29.08195 | 35418 ft | 474 kts | 124° |
| 2026-04-12 14:50 | 29.74432 | -29.02116 | 35417 ft | 474 kts | 124° |
| 2026-04-12 14:51 | 29.70484 | -28.96049 | 35417 ft | 473 kts | 124° |
| 2026-04-12 14:51 | 29.66536 | -28.89990 | 35413 ft | 473 kts | 124° |
| 2026-04-12 14:52 | 29.62584 | -28.83935 | 35414 ft | 473 kts | 124° |
| 2026-04-12 14:52 | 29.58629 | -28.77885 | 35414 ft | 473 kts | 124° |
| 2026-04-12 14:53 | 29.54702 | -28.71885 | 35410 ft | 472 kts | 124° |
| 2026-04-12 14:53 | 29.50748 | -28.65853 | 35409 ft | 472 kts | 124° |
| 2026-04-12 14:54 | 29.46791 | -28.59826 | 35406 ft | 472 kts | 124° |
| 2026-04-12 14:54 | 29.42832 | -28.53805 | 35404 ft | 472 kts | 124° |
| 2026-04-12 14:55 | 29.38893 | -28.47821 | 35405 ft | 472 kts | 124° |
| 2026-04-12 14:55 | 29.34927 | -28.41807 | 35404 ft | 472 kts | 124° |
| 2026-04-12 14:56 | 29.30965 | -28.35806 | 35404 ft | 472 kts | 124° |
| 2026-04-12 14:56 | 29.26998 | -28.29809 | 35401 ft | 472 kts | 124° |
| 2026-04-12 14:57 | 29.23055 | -28.23854 | 35402 ft | 472 kts | 124° |
| 2026-04-12 14:57 | 29.19086 | -28.17869 | 35401 ft | 472 kts | 124° |
| 2026-04-12 14:58 | 29.15112 | -28.11886 | 35398 ft | 472 kts | 125° |
| 2026-04-12 14:58 | 29.11137 | -28.05911 | 35397 ft | 472 kts | 125° |
| 2026-04-12 14:59 | 29.07165 | -27.99947 | 35396 ft | 472 kts | 125° |
| 2026-04-12 14:59 | 29.03179 | -27.93972 | 35395 ft | 472 kts | 125° |
| 2026-04-12 15:00 | 28.97231 | -27.85070 | 35391 ft | 472 kts | 125° |
| 2026-04-12 15:01 | 28.93248 | -27.79121 | 35388 ft | 472 kts | 125° |
| 2026-04-12 15:01 | 28.89260 | -27.73172 | 35389 ft | 472 kts | 125° |
| 2026-04-12 15:02 | 28.85270 | -27.67228 | 35388 ft | 472 kts | 125° |
| 2026-04-12 15:02 | 28.81270 | -27.61278 | 35383 ft | 472 kts | 125° |
| 2026-04-12 15:03 | 28.77288 | -27.55364 | 35384 ft | 472 kts | 125° |
| 2026-04-12 15:03 | 28.73290 | -27.49435 | 35386 ft | 472 kts | 125° |
| 2026-04-12 15:04 | 28.69936 | -27.44467 | 35380 ft | 472 kts | 125° |
| 2026-04-12 15:04 | 28.65954 | -27.38575 | 35376 ft | 472 kts | 125° |
| 2026-04-12 15:05 | 28.61943 | -27.32650 | 35380 ft | 472 kts | 125° |
| 2026-04-12 15:05 | 28.57929 | -27.26728 | 35379 ft | 472 kts | 125° |
| 2026-04-12 15:06 | 28.53923 | -27.20825 | 35378 ft | 472 kts | 125° |
| 2026-04-12 15:06 | 28.49894 | -27.14898 | 35376 ft | 473 kts | 125° |
| 2026-04-12 15:07 | 28.45869 | -27.08986 | 35371 ft | 473 kts | 125° |
| 2026-04-12 15:07 | 28.41842 | -27.03078 | 35371 ft | 473 kts | 125° |
| 2026-04-12 15:08 | 28.37836 | -26.97209 | 35371 ft | 473 kts | 125° |
| 2026-04-12 15:08 | 28.33796 | -26.91299 | 35370 ft | 473 kts | 125° |
| 2026-04-12 15:09 | 28.29758 | -26.85399 | 35365 ft | 473 kts | 125° |
| 2026-04-12 15:09 | 28.25718 | -26.79507 | 35363 ft | 473 kts | 125° |
| 2026-04-12 15:10 | 28.21673 | -26.73613 | 35361 ft | 473 kts | 125° |
| 2026-04-12 15:10 | 28.17626 | -26.67726 | 35353 ft | 473 kts | 125° |
| 2026-04-12 15:11 | 28.13577 | -26.61843 | 35350 ft | 474 kts | 126° |
| 2026-04-12 15:11 | 28.09520 | -26.55956 | 35359 ft | 474 kts | 125° |
| 2026-04-12 15:12 | 28.05459 | -26.50071 | 35359 ft | 474 kts | 125° |
| 2026-04-12 15:12 | 28.01417 | -26.44225 | 35353 ft | 474 kts | 125° |
| 2026-04-12 15:13 | 27.97337 | -26.38330 | 35351 ft | 475 kts | 126° |
| 2026-04-12 15:13 | 27.93253 | -26.32437 | 35351 ft | 475 kts | 126° |
| 2026-04-12 15:14 | 27.89202 | -26.26598 | 35349 ft | 475 kts | 126° |
| 2026-04-12 15:14 | 27.85104 | -26.20700 | 35347 ft | 476 kts | 126° |
| 2026-04-12 15:15 | 27.81007 | -26.14816 | 35347 ft | 477 kts | 126° |
| 2026-04-12 15:15 | 27.76905 | -26.08930 | 35348 ft | 477 kts | 126° |
| 2026-04-12 15:16 | 27.72785 | -26.03024 | 35346 ft | 478 kts | 126° |
| 2026-04-12 15:16 | 27.68693 | -25.97166 | 35341 ft | 478 kts | 126° |
| 2026-04-12 15:17 | 27.64566 | -25.91270 | 35340 ft | 479 kts | 126° |
| 2026-04-12 15:17 | 27.60433 | -25.85369 | 35341 ft | 479 kts | 126° |
| 2026-04-12 15:18 | 27.56289 | -25.79463 | 35335 ft | 480 kts | 126° |
| 2026-04-12 15:18 | 27.52134 | -25.73548 | 35335 ft | 481 kts | 126° |
| 2026-04-12 15:19 | 27.48004 | -25.67676 | 35332 ft | 481 kts | 126° |
| 2026-04-12 15:19 | 27.43833 | -25.61755 | 35330 ft | 482 kts | 126° |
| 2026-04-12 15:20 | 27.39659 | -25.55839 | 35328 ft | 483 kts | 126° |
| 2026-04-12 15:20 | 27.35475 | -25.49913 | 35326 ft | 484 kts | 126° |
| 2026-04-12 15:21 | 27.31277 | -25.43978 | 35325 ft | 485 kts | 126° |
| 2026-04-12 15:21 | 27.27096 | -25.38076 | 35324 ft | 485 kts | 126° |
| 2026-04-12 15:22 | 27.22880 | -25.32129 | 35317 ft | 486 kts | 127° |
| 2026-04-12 15:22 | 27.18652 | -25.26176 | 35320 ft | 487 kts | 126° |
| 2026-04-12 15:23 | 27.14418 | -25.20222 | 35315 ft | 488 kts | 127° |
| 2026-04-12 15:23 | 27.10167 | -25.14253 | 35315 ft | 489 kts | 127° |
| 2026-04-12 15:24 | 27.05915 | -25.08287 | 35313 ft | 490 kts | 127° |
| 2026-04-12 15:24 | 27.01673 | -25.02344 | 35313 ft | 491 kts | 127° |
| 2026-04-12 15:25 | 26.97563 | -24.96225 | 35311 ft | 490 kts | 124° |
| 2026-04-12 15:25 | 26.93649 | -24.89944 | 35308 ft | 491 kts | 123° |
| 2026-04-12 15:26 | 26.89745 | -24.83653 | 35308 ft | 492 kts | 123° |
| 2026-04-12 15:26 | 26.85812 | -24.77359 | 35305 ft | 493 kts | 123° |
| 2026-04-12 15:27 | 26.81863 | -24.71073 | 35307 ft | 494 kts | 124° |
| 2026-04-12 15:27 | 26.77927 | -24.64823 | 35303 ft | 495 kts | 124° |
| 2026-04-12 15:28 | 26.73954 | -24.58520 | 35304 ft | 495 kts | 124° |
| 2026-04-12 15:28 | 26.69974 | -24.52212 | 35299 ft | 496 kts | 124° |
| 2026-04-12 15:29 | 26.65992 | -24.45910 | 35297 ft | 496 kts | 124° |
| 2026-04-12 15:29 | 26.62031 | -24.39649 | 35294 ft | 496 kts | 124° |
| 2026-04-12 15:30 | 26.58699 | -24.34391 | 35283 ft | 492 kts | 124° |
| 2026-04-12 15:30 | 26.54122 | -24.27179 | 35299 ft | 493 kts | 124° |
| 2026-04-12 15:31 | 26.50153 | -24.20931 | 35277 ft | 489 kts | 125° |
| 2026-04-12 15:31 | 26.46210 | -24.14733 | 35295 ft | 493 kts | 125° |
| 2026-04-12 15:32 | 26.42233 | -24.08491 | 35276 ft | 491 kts | 125° |
| 2026-04-12 15:32 | 26.38299 | -24.02326 | 35285 ft | 492 kts | 125° |
| 2026-04-12 15:33 | 26.34335 | -23.96122 | 35288 ft | 492 kts | 125° |
| 2026-04-12 15:33 | 26.30335 | -23.89869 | 35271 ft | 491 kts | 126° |
| 2026-04-12 15:34 | 26.26372 | -23.83681 | 35287 ft | 493 kts | 126° |
| 2026-04-12 15:34 | 26.22418 | -23.77518 | 35269 ft | 490 kts | 126° |
| 2026-04-12 15:35 | 26.18422 | -23.71298 | 35281 ft | 493 kts | 126° |
| 2026-04-12 15:35 | 26.14447 | -23.65119 | 35277 ft | 492 kts | 126° |
| 2026-04-12 15:36 | 26.10442 | -23.58900 | 35267 ft | 493 kts | 126° |
| 2026-04-12 15:36 | 26.06448 | -23.52707 | 35271 ft | 492 kts | 126° |
| 2026-04-12 15:37 | 26.02459 | -23.46530 | 35266 ft | 491 kts | 126° |
| 2026-04-12 15:37 | 25.98458 | -23.40342 | 35266 ft | 492 kts | 126° |
| 2026-04-12 15:38 | 25.94488 | -23.34209 | 35272 ft | 493 kts | 127° |
| 2026-04-12 15:38 | 25.90470 | -23.28013 | 35259 ft | 493 kts | 127° |
| 2026-04-12 15:39 | 25.86462 | -23.21843 | 35266 ft | 495 kts | 127° |
| 2026-04-12 15:39 | 25.82422 | -23.15629 | 35253 ft | 495 kts | 127° |
| 2026-04-12 15:40 | 25.78410 | -23.09464 | 35254 ft | 491 kts | 127° |
| 2026-04-12 15:40 | 25.74396 | -23.03306 | 35256 ft | 493 kts | 127° |
| 2026-04-12 15:41 | 25.70414 | -22.97206 | 35257 ft | 492 kts | 127° |
| 2026-04-12 15:41 | 25.66379 | -22.91035 | 35248 ft | 493 kts | 127° |
| 2026-04-12 15:42 | 25.62364 | -22.84899 | 35253 ft | 491 kts | 127° |
| 2026-04-12 15:42 | 25.58349 | -22.78772 | 35241 ft | 491 kts | 127° |
| 2026-04-12 15:43 | 25.52978 | -22.70586 | 35244 ft | 494 kts | 127° |
| 2026-04-12 15:43 | 25.48939 | -22.64442 | 35233 ft | 491 kts | 128° |
| 2026-04-12 15:44 | 25.44898 | -22.58303 | 35248 ft | 494 kts | 128° |
| 2026-04-12 15:44 | 25.40855 | -22.52169 | 35243 ft | 498 kts | 128° |
| 2026-04-12 15:45 | 25.36744 | -22.45940 | 35245 ft | 503 kts | 128° |
| 2026-04-12 15:45 | 25.32606 | -22.39677 | 35234 ft | 505 kts | 128° |
| 2026-04-12 15:46 | 25.26377 | -22.30264 | 35229 ft | 506 kts | 128° |
| 2026-04-12 15:47 | 25.22225 | -22.24000 | 35224 ft | 504 kts | 128° |
| 2026-04-12 15:47 | 25.18078 | -22.17754 | 35226 ft | 503 kts | 128° |
| 2026-04-12 15:48 | 25.13964 | -22.11565 | 35217 ft | 502 kts | 128° |
| 2026-04-12 15:48 | 25.09826 | -22.05348 | 35223 ft | 502 kts | 128° |
| 2026-04-12 15:49 | 25.05678 | -21.99124 | 35219 ft | 503 kts | 128° |
| 2026-04-12 15:49 | 25.01524 | -21.92899 | 35217 ft | 504 kts | 129° |
| 2026-04-12 15:50 | 24.97389 | -21.86710 | 35216 ft | 505 kts | 129° |
| 2026-04-12 15:50 | 24.93207 | -21.80460 | 35212 ft | 506 kts | 129° |
| 2026-04-12 15:51 | 24.89018 | -21.74207 | 35219 ft | 508 kts | 129° |
| 2026-04-12 15:51 | 24.84819 | -21.67946 | 35215 ft | 509 kts | 129° |
| 2026-04-12 15:52 | 24.80595 | -21.61658 | 35211 ft | 511 kts | 129° |
| 2026-04-12 15:52 | 24.76389 | -21.55404 | 35212 ft | 512 kts | 129° |
| 2026-04-12 15:53 | 24.72143 | -21.49098 | 35206 ft | 513 kts | 130° |
| 2026-04-12 15:53 | 24.67870 | -21.42762 | 35475 ft | 517 kts | 130° |
| 2026-04-12 15:53 | 24.65729 | -21.39588 | 35824 ft | 516 kts | 130° |
| 2026-04-12 15:54 | 24.63595 | -21.36427 | 36175 ft | 514 kts | 130° |
| 2026-04-12 15:54 | 24.61463 | -21.33271 | 36511 ft | 514 kts | 131° |
| 2026-04-12 15:54 | 24.59329 | -21.30114 | 36820 ft | 514 kts | 131° |
| 2026-04-12 15:54 | 24.57193 | -21.26959 | 37069 ft | 515 kts | 131° |
| 2026-04-12 15:55 | 24.55045 | -21.23789 | 37143 ft | 518 kts | 131° |
| 2026-04-12 15:55 | 24.50764 | -21.17475 | 37190 ft | 518 kts | 132° |
| 2026-04-12 15:56 | 24.46467 | -21.11141 | 37186 ft | 516 kts | 132° |
| 2026-04-12 15:56 | 24.42178 | -21.04826 | 37192 ft | 515 kts | 132° |
| 2026-04-12 15:57 | 24.37893 | -20.98530 | 37190 ft | 514 kts | 132° |
| 2026-04-12 15:57 | 24.33631 | -20.92276 | 37193 ft | 515 kts | 133° |
| 2026-04-12 15:58 | 24.29332 | -20.85975 | 37187 ft | 516 kts | 133° |
| 2026-04-12 15:58 | 24.25016 | -20.79658 | 37186 ft | 518 kts | 133° |
| 2026-04-12 15:59 | 24.20680 | -20.73319 | 37188 ft | 520 kts | 133° |
| 2026-04-12 15:59 | 24.16333 | -20.66970 | 37185 ft | 522 kts | 133° |
| 2026-04-12 16:00 | 24.11994 | -20.60643 | 37182 ft | 524 kts | 133° |
| 2026-04-12 16:00 | 24.07612 | -20.54260 | 37178 ft | 525 kts | 133° |
| 2026-04-12 16:01 | 24.03216 | -20.47864 | 37180 ft | 526 kts | 134° |
| 2026-04-12 16:01 | 23.98808 | -20.41460 | 37178 ft | 527 kts | 134° |
| 2026-04-12 16:02 | 23.94392 | -20.35052 | 37178 ft | 528 kts | 134° |
| 2026-04-12 16:02 | 23.89965 | -20.28638 | 37179 ft | 528 kts | 134° |
| 2026-04-12 16:03 | 23.85527 | -20.22215 | 37176 ft | 529 kts | 134° |
| 2026-04-12 16:03 | 23.81095 | -20.15809 | 37172 ft | 529 kts | 135° |
| 2026-04-12 16:04 | 23.76680 | -20.09437 | 37170 ft | 529 kts | 135° |
| 2026-04-12 16:04 | 23.72232 | -20.03024 | 37165 ft | 530 kts | 135° |
| 2026-04-12 16:05 | 23.67779 | -19.96613 | 37166 ft | 530 kts | 135° |
| 2026-04-12 16:05 | 23.64073 | -19.91283 | 37172 ft | 530 kts | 135° |
| 2026-04-12 16:06 | 23.58852 | -19.83785 | 37166 ft | 531 kts | 136° |
| 2026-04-12 16:06 | 23.54378 | -19.77367 | 37160 ft | 532 kts | 136° |
| 2026-04-12 16:07 | 23.49893 | -19.70943 | 37162 ft | 532 kts | 136° |
| 2026-04-12 16:07 | 23.45403 | -19.64519 | 37167 ft | 533 kts | 136° |
| 2026-04-12 16:08 | 23.40928 | -19.58124 | 37158 ft | 533 kts | 136° |
| 2026-04-12 16:08 | 23.36424 | -19.51697 | 37154 ft | 534 kts | 136° |
| 2026-04-12 16:09 | 23.31911 | -19.45265 | 37151 ft | 534 kts | 137° |
| 2026-04-12 16:09 | 23.27395 | -19.38836 | 37150 ft | 535 kts | 137° |
| 2026-04-12 16:10 | 23.22898 | -19.32442 | 37150 ft | 535 kts | 137° |
| 2026-04-12 16:10 | 23.18372 | -19.26015 | 37151 ft | 535 kts | 137° |
| 2026-04-12 16:11 | 23.13838 | -19.19583 | 37147 ft | 536 kts | 137° |
| 2026-04-12 16:11 | 23.09301 | -19.13156 | 37142 ft | 536 kts | 137° |
| 2026-04-12 16:12 | 23.04788 | -19.06768 | 37142 ft | 536 kts | 137° |
| 2026-04-12 16:12 | 23.00171 | -19.00425 | 37137 ft | 530 kts | 142° |
| 2026-04-12 16:13 | 22.94947 | -18.94974 | 37145 ft | 516 kts | 150° |
| 2026-04-12 16:13 | 22.89519 | -18.89870 | 37138 ft | 517 kts | 150° |
| 2026-04-12 16:14 | 22.84117 | -18.84763 | 37136 ft | 518 kts | 150° |
| 2026-04-12 16:14 | 22.78693 | -18.79584 | 37143 ft | 519 kts | 150° |
| 2026-04-12 16:15 | 22.73274 | -18.74392 | 37134 ft | 520 kts | 150° |
| 2026-04-12 16:15 | 22.67845 | -18.69196 | 37134 ft | 520 kts | 150° |
| 2026-04-12 16:16 | 22.62414 | -18.64008 | 37128 ft | 520 kts | 150° |
| 2026-04-12 16:16 | 22.56979 | -18.58824 | 37126 ft | 520 kts | 150° |
| 2026-04-12 16:17 | 22.51584 | -18.53684 | 37130 ft | 520 kts | 150° |
| 2026-04-12 16:17 | 22.46145 | -18.48507 | 37123 ft | 520 kts | 150° |
| 2026-04-12 16:18 | 22.40718 | -18.43348 | 37123 ft | 519 kts | 150° |
| 2026-04-12 16:18 | 22.35288 | -18.38191 | 37120 ft | 519 kts | 150° |
| 2026-04-12 16:19 | 22.29871 | -18.33052 | 37120 ft | 518 kts | 150° |
| 2026-04-12 16:19 | 22.24488 | -18.27952 | 37118 ft | 518 kts | 150° |
| 2026-04-12 16:20 | 22.19069 | -18.22822 | 37115 ft | 517 kts | 150° |
| 2026-04-12 16:20 | 22.13661 | -18.17708 | 37112 ft | 517 kts | 150° |
| 2026-04-12 16:21 | 22.08245 | -18.12592 | 37111 ft | 516 kts | 150° |
| 2026-04-12 16:21 | 22.02859 | -18.07511 | 37119 ft | 516 kts | 150° |
| 2026-04-12 16:22 | 21.97458 | -18.02420 | 37104 ft | 516 kts | 150° |
| 2026-04-12 16:22 | 21.92054 | -17.97332 | 37120 ft | 516 kts | 150° |
| 2026-04-12 16:23 | 21.86651 | -17.92250 | 37110 ft | 516 kts | 150° |
| 2026-04-12 16:23 | 21.81241 | -17.87167 | 37106 ft | 516 kts | 150° |
| 2026-04-12 16:24 | 21.75862 | -17.82118 | 37103 ft | 516 kts | 150° |
| 2026-04-12 16:24 | 21.70443 | -17.77036 | 37099 ft | 515 kts | 150° |
| 2026-04-12 16:25 | 21.65035 | -17.71970 | 37097 ft | 515 kts | 150° |
| 2026-04-12 16:25 | 21.59657 | -17.66938 | 37095 ft | 515 kts | 150° |
| 2026-04-12 16:26 | 21.54241 | -17.61874 | 37092 ft | 515 kts | 150° |
| 2026-04-12 16:26 | 21.48824 | -17.56816 | 37089 ft | 515 kts | 150° |
| 2026-04-12 16:27 | 21.43419 | -17.51774 | 37085 ft | 515 kts | 150° |
| 2026-04-12 16:27 | 21.38924 | -17.47584 | 37082 ft | 515 kts | 150° |
| 2026-04-12 16:28 | 21.33510 | -17.42543 | 37087 ft | 515 kts | 150° |
| 2026-04-12 16:28 | 21.28097 | -17.37508 | 37085 ft | 515 kts | 150° |
| 2026-04-12 16:29 | 21.22716 | -17.32508 | 37083 ft | 514 kts | 150° |
| 2026-04-12 16:29 | 21.17306 | -17.27485 | 37075 ft | 514 kts | 150° |
| 2026-04-12 16:30 | 21.11891 | -17.22463 | 37077 ft | 514 kts | 150° |
| 2026-04-12 16:30 | 21.06481 | -17.17450 | 37075 ft | 514 kts | 150° |
| 2026-04-12 16:31 | 21.01062 | -17.12433 | 37074 ft | 513 kts | 150° |
| 2026-04-12 16:31 | 20.95687 | -17.07470 | 37074 ft | 511 kts | 152° |
| 2026-04-12 16:31 | 20.92869 | -17.05211 | 37075 ft | 499 kts | 159° |
| 2026-04-12 16:32 | 20.89918 | -17.03315 | 37082 ft | 490 kts | 164° |
| 2026-04-12 16:32 | 20.83806 | -17.00417 | 37079 ft | 473 kts | 172° |
| 2026-04-12 16:33 | 20.77611 | -16.98038 | 37072 ft | 473 kts | 173° |
| 2026-04-12 16:33 | 20.71408 | -16.95655 | 37068 ft | 474 kts | 172° |
| 2026-04-12 16:34 | 20.65245 | -16.93258 | 37059 ft | 474 kts | 172° |
| 2026-04-12 16:34 | 20.59042 | -16.90831 | 37049 ft | 475 kts | 172° |
| 2026-04-12 16:35 | 20.52836 | -16.88403 | 37039 ft | 475 kts | 172° |
| 2026-04-12 16:35 | 20.46619 | -16.85973 | 37039 ft | 475 kts | 172° |
| 2026-04-12 16:36 | 20.40405 | -16.83548 | 37038 ft | 475 kts | 172° |
| 2026-04-12 16:36 | 20.34187 | -16.81124 | 37030 ft | 475 kts | 172° |
| 2026-04-12 16:37 | 20.27972 | -16.78703 | 37024 ft | 475 kts | 171° |
| 2026-04-12 16:37 | 20.21791 | -16.76297 | 37019 ft | 475 kts | 171° |
| 2026-04-12 16:38 | 20.15572 | -16.73879 | 37019 ft | 475 kts | 171° |
| 2026-04-12 16:38 | 20.09351 | -16.71461 | 37011 ft | 475 kts | 171° |
| 2026-04-12 16:39 | 20.03140 | -16.69050 | 37011 ft | 474 kts | 171° |
| 2026-04-12 16:39 | 19.96983 | -16.66662 | 37011 ft | 474 kts | 171° |
| 2026-04-12 16:40 | 19.90781 | -16.64258 | 37011 ft | 473 kts | 171° |
| 2026-04-12 16:40 | 19.84590 | -16.61861 | 37008 ft | 473 kts | 171° |
| 2026-04-12 16:41 | 19.78402 | -16.59466 | 37006 ft | 473 kts | 171° |
| 2026-04-12 16:41 | 19.72223 | -16.57078 | 36998 ft | 472 kts | 171° |
| 2026-04-12 16:42 | 19.66033 | -16.54686 | 37000 ft | 472 kts | 171° |
| 2026-04-12 16:42 | 19.59898 | -16.52318 | 36997 ft | 472 kts | 171° |
| 2026-04-12 16:43 | 19.47544 | -16.47556 | 36994 ft | 472 kts | 170° |
| 2026-04-12 16:44 | 19.41367 | -16.45182 | 36986 ft | 472 kts | 170° |
| 2026-04-12 16:44 | 19.35225 | -16.42823 | 36992 ft | 472 kts | 170° |
| 2026-04-12 16:45 | 19.29050 | -16.40453 | 36981 ft | 472 kts | 170° |
| 2026-04-12 16:45 | 19.22829 | -16.38066 | 36984 ft | 472 kts | 170° |
| 2026-04-12 16:46 | 19.16684 | -16.35710 | 36978 ft | 472 kts | 170° |
| 2026-04-12 16:46 | 19.10508 | -16.33344 | 36977 ft | 472 kts | 170° |
| 2026-04-12 16:47 | 19.04331 | -16.30980 | 36976 ft | 472 kts | 169° |
| 2026-04-12 16:47 | 18.98156 | -16.28619 | 36973 ft | 472 kts | 169° |
| 2026-04-12 16:48 | 18.91987 | -16.26261 | 36971 ft | 471 kts | 169° |
| 2026-04-12 16:48 | 18.85822 | -16.23907 | 36967 ft | 471 kts | 169° |
| 2026-04-12 16:49 | 18.79701 | -16.21572 | 36964 ft | 471 kts | 169° |
| 2026-04-12 16:49 | 18.73538 | -16.19222 | 36960 ft | 470 kts | 169° |
| 2026-04-12 16:50 | 18.67380 | -16.16877 | 36961 ft | 470 kts | 169° |
| 2026-04-12 16:50 | 18.61225 | -16.14534 | 36964 ft | 470 kts | 169° |
| 2026-04-12 16:51 | 18.55064 | -16.12191 | 36966 ft | 470 kts | 169° |
| 2026-04-12 16:51 | 18.48916 | -16.09854 | 36962 ft | 470 kts | 169° |
| 2026-04-12 16:52 | 18.42793 | -16.07529 | 36960 ft | 470 kts | 169° |
| 2026-04-12 16:52 | 18.36647 | -16.05196 | 36975 ft | 470 kts | 169° |
| 2026-04-12 16:53 | 18.30495 | -16.02864 | 36958 ft | 470 kts | 169° |
| 2026-04-12 16:53 | 18.24327 | -16.00526 | 36971 ft | 470 kts | 168° |
| 2026-04-12 16:54 | 18.18203 | -15.98206 | 36965 ft | 470 kts | 168° |
| 2026-04-12 16:54 | 18.12102 | -15.95683 | 36950 ft | 479 kts | 159° |
| 2026-04-12 16:54 | 18.09305 | -15.93707 | 36965 ft | 491 kts | 149° |
| 2026-04-12 16:55 | 18.06784 | -15.91231 | 36960 ft | 502 kts | 139° |
| 2026-04-12 16:55 | 18.02649 | -15.85186 | 36956 ft | 512 kts | 131° |
| 2026-04-12 16:56 | 17.98714 | -15.78938 | 36945 ft | 513 kts | 131° |
| 2026-04-12 16:56 | 17.94734 | -15.72750 | 36938 ft | 513 kts | 131° |
| 2026-04-12 16:57 | 17.90683 | -15.66577 | 36936 ft | 513 kts | 132° |
| 2026-04-12 16:57 | 17.86610 | -15.60403 | 36929 ft | 513 kts | 132° |
| 2026-04-12 16:58 | 17.82545 | -15.54238 | 36928 ft | 513 kts | 132° |
| 2026-04-12 16:58 | 17.78507 | -15.48113 | 36932 ft | 513 kts | 132° |
| 2026-04-12 16:59 | 17.74450 | -15.41963 | 36930 ft | 512 kts | 132° |
| 2026-04-12 16:59 | 17.70392 | -15.35818 | 36931 ft | 512 kts | 132° |
| 2026-04-12 17:00 | 17.66339 | -15.29684 | 36923 ft | 512 kts | 132° |
| 2026-04-12 17:00 | 17.62282 | -15.23550 | 36925 ft | 511 kts | 131° |
| 2026-04-12 17:01 | 17.58258 | -15.17457 | 36919 ft | 511 kts | 131° |
| 2026-04-12 17:01 | 17.54212 | -15.11329 | 36915 ft | 511 kts | 131° |
| 2026-04-12 17:02 | 17.50165 | -15.05207 | 36923 ft | 511 kts | 131° |
| 2026-04-12 17:02 | 17.46112 | -14.99084 | 36917 ft | 511 kts | 131° |
| 2026-04-12 17:03 | 17.42064 | -14.92971 | 36913 ft | 510 kts | 131° |
| 2026-04-12 17:03 | 17.38013 | -14.86861 | 36910 ft | 510 kts | 131° |
| 2026-04-12 17:04 | 17.33982 | -14.80786 | 36910 ft | 510 kts | 131° |
| 2026-04-12 17:04 | 17.29934 | -14.74690 | 36902 ft | 510 kts | 131° |
| 2026-04-12 17:05 | 17.25885 | -14.68599 | 36910 ft | 509 kts | 131° |
| 2026-04-12 17:05 | 17.21837 | -14.62511 | 36908 ft | 509 kts | 131° |
| 2026-04-12 17:06 | 17.17784 | -14.56432 | 36904 ft | 509 kts | 131° |
| 2026-04-12 17:06 | 17.13728 | -14.50369 | 36901 ft | 508 kts | 131° |
| 2026-04-12 17:07 | 17.09700 | -14.44354 | 36902 ft | 508 kts | 131° |
| 2026-04-12 17:07 | 17.05644 | -14.38298 | 36898 ft | 508 kts | 131° |
| 2026-04-12 17:08 | 17.01596 | -14.32258 | 36895 ft | 508 kts | 131° |
| 2026-04-12 17:08 | 16.97538 | -14.26209 | 36893 ft | 508 kts | 131° |
| 2026-04-12 17:09 | 16.93484 | -14.20170 | 36891 ft | 507 kts | 131° |
| 2026-04-12 17:09 | 16.90109 | -14.15148 | 36893 ft | 507 kts | 131° |
| 2026-04-12 17:10 | 16.86053 | -14.09113 | 36892 ft | 508 kts | 131° |
| 2026-04-12 17:10 | 16.81995 | -14.03085 | 36887 ft | 508 kts | 131° |
| 2026-04-12 17:11 | 16.77931 | -13.97057 | 36884 ft | 508 kts | 131° |
| 2026-04-12 17:11 | 16.73864 | -13.91027 | 36881 ft | 508 kts | 131° |
| 2026-04-12 17:12 | 16.69811 | -13.85018 | 36883 ft | 508 kts | 131° |
| 2026-04-12 17:12 | 16.65743 | -13.78994 | 36877 ft | 508 kts | 131° |
| 2026-04-12 17:13 | 16.61668 | -13.72966 | 36880 ft | 508 kts | 131° |
| 2026-04-12 17:13 | 16.57619 | -13.66980 | 36873 ft | 507 kts | 131° |
| 2026-04-12 17:14 | 16.53550 | -13.60969 | 36875 ft | 507 kts | 131° |
| 2026-04-12 17:14 | 16.49478 | -13.54959 | 36866 ft | 507 kts | 131° |
| 2026-04-12 17:15 | 16.45409 | -13.48957 | 36866 ft | 507 kts | 131° |
| 2026-04-12 17:15 | 16.41340 | -13.42962 | 36865 ft | 506 kts | 131° |
| 2026-04-12 17:16 | 16.37271 | -13.36971 | 36864 ft | 506 kts | 131° |
| 2026-04-12 17:16 | 16.33234 | -13.31031 | 36862 ft | 505 kts | 131° |
| 2026-04-12 17:17 | 16.29172 | -13.25056 | 36856 ft | 505 kts | 131° |
| 2026-04-12 17:17 | 16.25111 | -13.19086 | 36862 ft | 505 kts | 131° |
| 2026-04-12 17:18 | 16.21053 | -13.13127 | 36855 ft | 504 kts | 131° |
| 2026-04-12 17:18 | 16.17013 | -13.07198 | 36857 ft | 504 kts | 131° |
| 2026-04-12 17:19 | 16.12932 | -13.01215 | 36853 ft | 503 kts | 131° |
| 2026-04-12 17:19 | 16.08880 | -12.95278 | 36850 ft | 503 kts | 131° |
| 2026-04-12 17:20 | 16.04852 | -12.89383 | 36849 ft | 503 kts | 131° |
| 2026-04-12 17:20 | 16.00791 | -12.83443 | 36849 ft | 503 kts | 131° |
| 2026-04-12 17:21 | 15.96731 | -12.77509 | 36846 ft | 503 kts | 131° |
| 2026-04-12 17:21 | 15.92692 | -12.71611 | 36844 ft | 503 kts | 131° |
| 2026-04-12 17:22 | 15.88633 | -12.65690 | 36838 ft | 503 kts | 131° |
| 2026-04-12 17:22 | 15.84572 | -12.59768 | 36843 ft | 503 kts | 131° |
| 2026-04-12 17:23 | 15.80509 | -12.53849 | 36842 ft | 503 kts | 131° |
| 2026-04-12 17:23 | 15.76442 | -12.47928 | 36836 ft | 503 kts | 131° |
| 2026-04-12 17:24 | 15.72367 | -12.42001 | 36837 ft | 503 kts | 131° |
| 2026-04-12 17:24 | 15.68321 | -12.36121 | 36834 ft | 503 kts | 131° |
| 2026-04-12 17:25 | 15.64244 | -12.30198 | 36833 ft | 503 kts | 131° |
| 2026-04-12 17:25 | 15.60169 | -12.24282 | 36833 ft | 503 kts | 131° |
| 2026-04-12 17:26 | 15.56095 | -12.18387 | 36828 ft | 503 kts | 131° |
| 2026-04-12 17:26 | 15.52013 | -12.12494 | 36829 ft | 502 kts | 131° |
| 2026-04-12 17:27 | 15.47962 | -12.06647 | 36840 ft | 502 kts | 131° |
| 2026-04-12 17:27 | 15.43887 | -12.00766 | 36822 ft | 502 kts | 131° |
| 2026-04-12 17:28 | 15.39815 | -11.94894 | 36820 ft | 501 kts | 131° |
| 2026-04-12 17:28 | 15.35737 | -11.89018 | 36840 ft | 501 kts | 131° |
| 2026-04-12 17:29 | 15.31665 | -11.83154 | 36839 ft | 501 kts | 131° |
| 2026-04-12 17:29 | 15.27611 | -11.77319 | 36836 ft | 501 kts | 130° |
| 2026-04-12 17:30 | 15.23534 | -11.71445 | 36822 ft | 502 kts | 130° |
| 2026-04-12 17:30 | 15.19461 | -11.65575 | 36831 ft | 502 kts | 130° |
| 2026-04-12 17:31 | 15.15404 | -11.59734 | 36832 ft | 502 kts | 130° |
| 2026-04-12 17:31 | 15.11312 | -11.53848 | 36830 ft | 503 kts | 130° |
| 2026-04-12 17:32 | 15.07217 | -11.47963 | 36830 ft | 504 kts | 130° |
| 2026-04-12 17:32 | 15.03112 | -11.42067 | 36826 ft | 505 kts | 130° |
| 2026-04-12 17:33 | 14.99018 | -11.36191 | 36828 ft | 506 kts | 130° |
| 2026-04-12 17:33 | 14.94884 | -11.30262 | 36825 ft | 507 kts | 130° |
| 2026-04-12 17:34 | 14.90773 | -11.24370 | 36828 ft | 508 kts | 130° |
| 2026-04-12 17:34 | 14.86623 | -11.18427 | 36824 ft | 509 kts | 130° |
| 2026-04-12 17:35 | 14.82476 | -11.12492 | 36823 ft | 509 kts | 130° |
| 2026-04-12 17:35 | 14.78325 | -11.06555 | 36820 ft | 509 kts | 130° |
| 2026-04-12 17:36 | 14.74174 | -11.00622 | 36816 ft | 509 kts | 130° |
| 2026-04-12 17:36 | 14.70044 | -10.94735 | 36816 ft | 509 kts | 130° |
| 2026-04-12 17:37 | 14.65885 | -10.88819 | 36815 ft | 509 kts | 130° |
| 2026-04-12 17:37 | 14.61724 | -10.82902 | 36822 ft | 508 kts | 130° |
| 2026-04-12 17:38 | 14.57561 | -10.76983 | 36819 ft | 508 kts | 130° |
| 2026-04-12 17:38 | 14.53435 | -10.71121 | 36819 ft | 508 kts | 130° |
| 2026-04-12 17:39 | 14.49281 | -10.65224 | 36813 ft | 507 kts | 130° |
| 2026-04-12 17:39 | 14.45132 | -10.59337 | 36819 ft | 507 kts | 130° |
| 2026-04-12 17:40 | 14.40980 | -10.53453 | 36814 ft | 507 kts | 130° |
| 2026-04-12 17:40 | 14.36821 | -10.47560 | 36819 ft | 507 kts | 130° |
| 2026-04-12 17:41 | 14.32695 | -10.41720 | 36812 ft | 507 kts | 130° |
| 2026-04-12 17:41 | 14.28534 | -10.35834 | 36821 ft | 507 kts | 130° |
| 2026-04-12 17:42 | 14.24370 | -10.29948 | 36814 ft | 508 kts | 130° |
| 2026-04-12 17:42 | 14.20198 | -10.24055 | 36806 ft | 508 kts | 130° |
| 2026-04-12 17:43 | 14.13971 | -10.15266 | 36811 ft | 508 kts | 130° |
| 2026-04-12 17:43 | 14.09797 | -10.09379 | 36807 ft | 508 kts | 130° |
| 2026-04-12 17:44 | 14.03541 | -10.00564 | 36804 ft | 508 kts | 130° |
| 2026-04-12 17:45 | 13.99366 | -9.94681 | 36807 ft | 508 kts | 130° |
| 2026-04-12 17:45 | 13.95198 | -9.88805 | 36804 ft | 508 kts | 130° |
| 2026-04-12 17:46 | 13.91057 | -9.82969 | 36804 ft | 508 kts | 130° |
| 2026-04-12 17:46 | 13.86890 | -9.77100 | 36798 ft | 507 kts | 130° |
| 2026-04-12 17:47 | 13.82720 | -9.71231 | 36805 ft | 507 kts | 130° |
| 2026-04-12 17:47 | 13.78558 | -9.65378 | 36803 ft | 507 kts | 130° |
| 2026-04-12 17:48 | 13.74387 | -9.59522 | 36805 ft | 507 kts | 130° |
| 2026-04-12 17:48 | 13.70221 | -9.53676 | 36812 ft | 506 kts | 130° |
| 2026-04-12 17:49 | 13.66079 | -9.47864 | 36815 ft | 506 kts | 130° |
| 2026-04-12 17:49 | 13.61913 | -9.42023 | 36819 ft | 506 kts | 130° |
| 2026-04-12 17:50 | 13.57749 | -9.36188 | 36822 ft | 506 kts | 130° |
| 2026-04-12 17:50 | 13.53587 | -9.30360 | 36828 ft | 506 kts | 130° |
| 2026-04-12 17:51 | 13.49427 | -9.24539 | 36830 ft | 505 kts | 130° |
| 2026-04-12 17:51 | 13.45263 | -9.18717 | 36827 ft | 505 kts | 130° |
| 2026-04-12 17:52 | 13.41806 | -9.13884 | 36835 ft | 505 kts | 130° |
| 2026-04-12 17:52 | 13.37641 | -9.08067 | 36839 ft | 505 kts | 130° |
| 2026-04-12 17:53 | 13.33475 | -9.02254 | 36845 ft | 505 kts | 130° |
| 2026-04-12 17:53 | 13.29294 | -8.96422 | 36850 ft | 506 kts | 130° |
| 2026-04-12 17:54 | 13.25146 | -8.90640 | 36854 ft | 507 kts | 130° |
| 2026-04-12 17:54 | 13.20961 | -8.84810 | 36853 ft | 507 kts | 130° |
| 2026-04-12 17:55 | 13.16764 | -8.78968 | 36856 ft | 508 kts | 130° |
| 2026-04-12 17:55 | 13.12562 | -8.73122 | 36857 ft | 509 kts | 130° |
| 2026-04-12 17:56 | 13.08353 | -8.67271 | 36865 ft | 509 kts | 130° |
| 2026-04-12 17:56 | 13.04167 | -8.61455 | 36867 ft | 509 kts | 130° |
| 2026-04-12 17:57 | 12.99952 | -8.55602 | 36872 ft | 509 kts | 130° |
| 2026-04-12 17:57 | 12.95736 | -8.49752 | 36877 ft | 509 kts | 130° |
| 2026-04-12 17:58 | 12.91526 | -8.43913 | 36879 ft | 509 kts | 130° |
| 2026-04-12 17:58 | 12.87314 | -8.38077 | 36887 ft | 509 kts | 130° |
| 2026-04-12 17:59 | 12.83102 | -8.32244 | 36887 ft | 509 kts | 130° |
| 2026-04-12 17:59 | 12.78893 | -8.26418 | 36894 ft | 508 kts | 130° |
| 2026-04-12 18:00 | 12.74711 | -8.20634 | 36901 ft | 508 kts | 129° |
| 2026-04-12 18:00 | 12.70508 | -8.14824 | 36898 ft | 507 kts | 129° |
| 2026-04-12 18:01 | 12.66305 | -8.09017 | 36890 ft | 507 kts | 129° |
| 2026-04-12 18:01 | 12.62094 | -8.03203 | 36883 ft | 507 kts | 129° |
| 2026-04-12 18:02 | 12.57921 | -7.97443 | 36886 ft | 507 kts | 129° |
| 2026-04-12 18:02 | 12.54137 | -7.91338 | 36891 ft | 510 kts | 120° |
| 2026-04-12 18:03 | 12.51359 | -7.84623 | 36893 ft | 513 kts | 113° |
| 2026-04-12 18:03 | 12.48806 | -7.77789 | 36900 ft | 513 kts | 113° |
| 2026-04-12 18:04 | 12.46249 | -7.71006 | 36896 ft | 514 kts | 113° |
| 2026-04-12 18:04 | 12.43644 | -7.64203 | 36896 ft | 514 kts | 114° |
| 2026-04-12 18:05 | 12.41016 | -7.57382 | 36900 ft | 514 kts | 114° |
| 2026-04-12 18:05 | 12.38388 | -7.50570 | 36900 ft | 514 kts | 114° |
| 2026-04-12 18:06 | 12.35764 | -7.43764 | 36896 ft | 514 kts | 113° |
| 2026-04-12 18:06 | 12.33153 | -7.36997 | 36896 ft | 514 kts | 113° |
| 2026-04-12 18:07 | 12.30528 | -7.30198 | 36896 ft | 513 kts | 113° |
| 2026-04-12 18:07 | 12.27905 | -7.23408 | 36889 ft | 512 kts | 113° |
| 2026-04-12 18:08 | 12.25282 | -7.16626 | 36885 ft | 512 kts | 113° |
| 2026-04-12 18:08 | 12.22663 | -7.09862 | 36887 ft | 511 kts | 113° |
| 2026-04-12 18:09 | 12.20060 | -7.03142 | 36886 ft | 511 kts | 113° |
| 2026-04-12 18:09 | 12.17441 | -6.96389 | 36876 ft | 510 kts | 113° |
| 2026-04-12 18:10 | 12.14823 | -6.89641 | 36878 ft | 510 kts | 113° |
| 2026-04-12 18:10 | 12.12207 | -6.82907 | 36875 ft | 509 kts | 113° |
| 2026-04-12 18:11 | 12.09610 | -6.76224 | 36877 ft | 508 kts | 114° |
| 2026-04-12 18:11 | 12.06999 | -6.69514 | 36872 ft | 508 kts | 114° |
| 2026-04-12 18:12 | 12.04390 | -6.62812 | 36869 ft | 507 kts | 114° |
| 2026-04-12 18:12 | 12.01777 | -6.56104 | 36866 ft | 507 kts | 114° |
| 2026-04-12 18:13 | 11.99167 | -6.49413 | 36867 ft | 507 kts | 114° |
| 2026-04-12 18:13 | 11.96557 | -6.42724 | 36861 ft | 507 kts | 114° |
| 2026-04-12 18:14 | 11.93946 | -6.36040 | 36860 ft | 507 kts | 114° |
| 2026-04-12 18:14 | 11.91347 | -6.29392 | 36855 ft | 507 kts | 114° |
| 2026-04-12 18:15 | 11.88729 | -6.22698 | 36855 ft | 507 kts | 113° |
| 2026-04-12 18:15 | 11.86111 | -6.16011 | 36850 ft | 507 kts | 113° |
| 2026-04-12 18:16 | 11.83490 | -6.09321 | 36849 ft | 507 kts | 113° |
| 2026-04-12 18:16 | 11.80868 | -6.02636 | 36849 ft | 507 kts | 113° |
| 2026-04-12 18:17 | 11.78241 | -5.95940 | 36844 ft | 507 kts | 113° |
| 2026-04-12 18:17 | 11.75610 | -5.89242 | 36847 ft | 507 kts | 113° |
| 2026-04-12 18:18 | 11.72998 | -5.82596 | 36840 ft | 507 kts | 113° |
| 2026-04-12 18:18 | 11.70371 | -5.75917 | 36839 ft | 507 kts | 113° |
| 2026-04-12 18:19 | 11.67741 | -5.69237 | 36851 ft | 507 kts | 113° |
| 2026-04-12 18:19 | 11.65113 | -5.62565 | 36850 ft | 507 kts | 113° |
| 2026-04-12 18:20 | 11.62483 | -5.55895 | 36842 ft | 506 kts | 113° |
| 2026-04-12 18:20 | 11.59852 | -5.49226 | 36841 ft | 507 kts | 113° |
| 2026-04-12 18:21 | 11.57220 | -5.42560 | 36838 ft | 506 kts | 113° |
| 2026-04-12 18:21 | 11.54588 | -5.35898 | 36824 ft | 506 kts | 113° |
| 2026-04-12 18:22 | 11.51953 | -5.29233 | 36836 ft | 506 kts | 113° |
| 2026-04-12 18:22 | 11.49315 | -5.22568 | 36831 ft | 506 kts | 113° |
| 2026-04-12 18:23 | 11.46692 | -5.15952 | 36829 ft | 506 kts | 113° |
| 2026-04-12 18:23 | 11.44049 | -5.09292 | 36830 ft | 506 kts | 113° |
| 2026-04-12 18:24 | 11.41407 | -5.02632 | 36831 ft | 506 kts | 113° |
| 2026-04-12 18:24 | 11.38764 | -4.95978 | 36824 ft | 506 kts | 113° |
| 2026-04-12 18:25 | 11.36125 | -4.89336 | 36825 ft | 505 kts | 113° |
| 2026-04-12 18:25 | 11.33486 | -4.82700 | 36826 ft | 505 kts | 113° |
| 2026-04-12 18:26 | 11.30866 | -4.76119 | 36823 ft | 504 kts | 113° |
| 2026-04-12 18:26 | 11.28227 | -4.69492 | 36820 ft | 504 kts | 113° |
| 2026-04-12 18:27 | 11.25589 | -4.62874 | 36833 ft | 503 kts | 113° |
| 2026-04-12 18:27 | 11.22954 | -4.56267 | 36857 ft | 503 kts | 113° |
| 2026-04-12 18:28 | 11.20318 | -4.49662 | 36885 ft | 503 kts | 113° |
| 2026-04-12 18:28 | 11.17680 | -4.43059 | 36904 ft | 503 kts | 113° |
| 2026-04-12 18:29 | 11.15041 | -4.36456 | 36913 ft | 503 kts | 113° |
| 2026-04-12 18:29 | 11.12143 | -4.30037 | 36917 ft | 502 kts | 117° |
| 2026-04-12 18:30 | 11.09022 | -4.23655 | 36903 ft | 502 kts | 118° |
| 2026-04-12 18:30 | 11.05912 | -4.17287 | 36877 ft | 502 kts | 117° |
| 2026-04-12 18:31 | 11.02839 | -4.10933 | 36854 ft | 502 kts | 117° |
| 2026-04-12 18:31 | 10.99760 | -4.04549 | 36821 ft | 502 kts | 117° |
| 2026-04-12 18:32 | 10.96680 | -3.98170 | 36803 ft | 502 kts | 117° |
| 2026-04-12 18:32 | 10.94119 | -3.92872 | 36806 ft | 501 kts | 117° |
| 2026-04-12 18:33 | 10.91039 | -3.86503 | 36807 ft | 501 kts | 117° |
| 2026-04-12 18:33 | 10.87959 | -3.80139 | 36806 ft | 501 kts | 117° |
| 2026-04-12 18:34 | 10.84882 | -3.73789 | 36808 ft | 500 kts | 117° |
| 2026-04-12 18:34 | 10.81803 | -3.67440 | 36804 ft | 500 kts | 117° |
| 2026-04-12 18:35 | 10.78728 | -3.61100 | 36805 ft | 499 kts | 117° |
| 2026-04-12 18:35 | 10.75671 | -3.54801 | 36804 ft | 499 kts | 117° |
| 2026-04-12 18:36 | 10.73115 | -3.49536 | 36808 ft | 499 kts | 117° |
| 2026-04-12 18:37 | 10.66447 | -3.35816 | 36810 ft | 499 kts | 117° |
| 2026-04-12 18:37 | 10.63370 | -3.29491 | 36802 ft | 499 kts | 117° |
| 2026-04-12 18:38 | 10.60292 | -3.23167 | 36805 ft | 499 kts | 117° |
| 2026-04-12 18:38 | 10.57229 | -3.16876 | 36809 ft | 499 kts | 117° |
| 2026-04-12 18:39 | 10.54146 | -3.10548 | 36804 ft | 499 kts | 117° |
| 2026-04-12 18:39 | 10.51055 | -3.04220 | 36808 ft | 499 kts | 117° |
| 2026-04-12 18:40 | 10.47956 | -2.97901 | 36809 ft | 499 kts | 118° |
| 2026-04-12 18:40 | 10.44859 | -2.91582 | 36807 ft | 500 kts | 117° |
| 2026-04-12 18:41 | 10.41776 | -2.85292 | 36809 ft | 500 kts | 117° |
| 2026-04-12 18:41 | 10.39134 | -2.78752 | 36816 ft | 500 kts | 110° |
| 2026-04-12 18:42 | 10.36893 | -2.72050 | 36808 ft | 501 kts | 109° |
| 2026-04-12 18:42 | 10.34648 | -2.65351 | 36811 ft | 501 kts | 110° |
| 2026-04-12 18:43 | 10.30082 | -2.52013 | 36812 ft | 501 kts | 110° |
| 2026-04-12 18:44 | 10.27789 | -2.45338 | 36814 ft | 501 kts | 110° |
| 2026-04-12 18:44 | 10.25496 | -2.38663 | 36814 ft | 500 kts | 110° |
| 2026-04-12 18:45 | 10.23201 | -2.31982 | 36814 ft | 500 kts | 110° |
| 2026-04-12 18:45 | 10.20914 | -2.25363 | 36814 ft | 500 kts | 111° |
| 2026-04-12 18:46 | 10.18141 | -2.18887 | 36814 ft | 499 kts | 115° |
| 2026-04-12 18:46 | 10.15205 | -2.12481 | 36814 ft | 499 kts | 115° |
| 2026-04-12 18:47 | 10.12298 | -2.06112 | 36810 ft | 499 kts | 115° |
| 2026-04-12 18:47 | 10.09400 | -1.99701 | 36811 ft | 500 kts | 115° |
| 2026-04-12 18:48 | 10.06509 | -1.93283 | 36809 ft | 500 kts | 115° |
| 2026-04-12 18:48 | 10.03616 | -1.86865 | 36813 ft | 500 kts | 115° |
| 2026-04-12 18:49 | 10.00722 | -1.80451 | 36813 ft | 500 kts | 115° |
| 2026-04-12 18:49 | 9.97829 | -1.74046 | 36812 ft | 499 kts | 115° |
| 2026-04-12 18:50 | 9.94947 | -1.67670 | 36818 ft | 499 kts | 115° |
| 2026-04-12 18:50 | 9.92053 | -1.61268 | 36814 ft | 499 kts | 115° |
| 2026-04-12 18:51 | 9.89153 | -1.54861 | 36823 ft | 500 kts | 115° |
| 2026-04-12 18:51 | 9.87698 | -1.51646 | 36999 ft | 502 kts | 115° |
| 2026-04-12 18:51 | 9.86242 | -1.48431 | 37372 ft | 501 kts | 115° |
| 2026-04-12 18:51 | 9.84793 | -1.45231 | 37797 ft | 498 kts | 115° |
| 2026-04-12 18:52 | 9.83351 | -1.42049 | 38209 ft | 496 kts | 115° |
| 2026-04-12 18:52 | 9.81913 | -1.38875 | 38570 ft | 495 kts | 115° |
| 2026-04-12 18:52 | 9.80475 | -1.35703 | 38733 ft | 496 kts | 115° |
| 2026-04-12 18:53 | 9.77595 | -1.29352 | 38810 ft | 497 kts | 115° |
| 2026-04-12 18:53 | 9.74713 | -1.23002 | 38801 ft | 494 kts | 115° |
| 2026-04-12 18:54 | 9.71846 | -1.16687 | 38811 ft | 492 kts | 115° |
| 2026-04-12 18:54 | 9.68989 | -1.10399 | 38806 ft | 490 kts | 115° |
| 2026-04-12 18:55 | 9.66136 | -1.04122 | 38798 ft | 489 kts | 115° |
| 2026-04-12 18:55 | 9.63290 | -0.97864 | 38808 ft | 489 kts | 115° |
| 2026-04-12 18:56 | 9.60456 | -0.91636 | 38809 ft | 489 kts | 115° |
| 2026-04-12 18:56 | 9.57601 | -0.85363 | 38809 ft | 489 kts | 115° |
| 2026-04-12 18:57 | 9.54863 | -0.79044 | 38808 ft | 490 kts | 113° |
| 2026-04-12 18:57 | 9.52257 | -0.72669 | 38812 ft | 490 kts | 112° |
| 2026-04-12 18:58 | 9.49641 | -0.66288 | 38813 ft | 490 kts | 113° |
| 2026-04-12 18:58 | 9.47000 | -0.59919 | 38807 ft | 490 kts | 113° |
| 2026-04-12 18:59 | 9.44353 | -0.53563 | 38814 ft | 490 kts | 113° |
| 2026-04-12 18:59 | 9.41723 | -0.47256 | 38819 ft | 489 kts | 113° |
| 2026-04-12 19:00 | 9.39074 | -0.40898 | 38812 ft | 489 kts | 113° |
| 2026-04-12 19:00 | 9.36425 | -0.34546 | 38825 ft | 489 kts | 113° |
| 2026-04-12 19:01 | 9.33775 | -0.28192 | 38816 ft | 489 kts | 113° |
| 2026-04-12 19:01 | 9.31126 | -0.21847 | 38819 ft | 489 kts | 113° |
| 2026-04-12 19:02 | 9.28494 | -0.15542 | 38817 ft | 489 kts | 113° |
| 2026-04-12 19:02 | 9.25842 | -0.09196 | 38823 ft | 489 kts | 113° |
| 2026-04-12 19:03 | 9.23188 | -0.02850 | 38824 ft | 489 kts | 113° |
| 2026-04-12 19:03 | 9.20076 | 0.03226 | 38822 ft | 489 kts | 120° |
| 2026-04-12 19:04 | 9.16614 | 0.09155 | 38827 ft | 490 kts | 121° |
| 2026-04-12 19:04 | 9.13148 | 0.15101 | 38820 ft | 490 kts | 121° |
| 2026-04-12 19:05 | 9.09708 | 0.21075 | 38824 ft | 491 kts | 121° |
| 2026-04-12 19:05 | 9.06272 | 0.27065 | 38833 ft | 492 kts | 121° |
| 2026-04-12 19:06 | 9.02821 | 0.33077 | 38830 ft | 494 kts | 121° |
| 2026-04-12 19:06 | 8.99366 | 0.39087 | 38831 ft | 495 kts | 121° |
| 2026-04-12 19:07 | 8.95925 | 0.45071 | 38831 ft | 495 kts | 121° |
| 2026-04-12 19:07 | 8.92451 | 0.51108 | 38837 ft | 496 kts | 121° |
| 2026-04-12 19:08 | 8.88974 | 0.57150 | 38839 ft | 496 kts | 121° |
| 2026-04-12 19:08 | 8.85505 | 0.63177 | 38846 ft | 496 kts | 121° |
| 2026-04-12 19:09 | 8.82054 | 0.69173 | 38851 ft | 495 kts | 121° |
| 2026-04-12 19:09 | 8.78593 | 0.75185 | 38849 ft | 494 kts | 121° |
| 2026-04-12 19:10 | 8.75145 | 0.81177 | 38845 ft | 492 kts | 121° |
| 2026-04-12 19:10 | 8.71728 | 0.87149 | 38858 ft | 490 kts | 120° |
| 2026-04-12 19:11 | 8.68327 | 0.93101 | 38851 ft | 488 kts | 120° |
| 2026-04-12 19:11 | 8.64936 | 0.99028 | 38850 ft | 486 kts | 120° |
| 2026-04-12 19:12 | 8.61551 | 1.04941 | 38849 ft | 485 kts | 120° |
| 2026-04-12 19:12 | 8.58171 | 1.10839 | 38853 ft | 484 kts | 120° |
| 2026-04-12 19:13 | 8.54817 | 1.16690 | 38851 ft | 484 kts | 120° |
| 2026-04-12 19:13 | 8.51445 | 1.22572 | 38846 ft | 483 kts | 120° |
| 2026-04-12 19:14 | 8.48070 | 1.28456 | 38852 ft | 483 kts | 120° |
| 2026-04-12 19:14 | 8.44694 | 1.34338 | 38845 ft | 484 kts | 120° |
| 2026-04-12 19:15 | 8.41887 | 1.39227 | 38844 ft | 484 kts | 120° |
| 2026-04-12 19:15 | 8.38505 | 1.45115 | 38843 ft | 484 kts | 120° |
| 2026-04-12 19:16 | 8.34571 | 1.51960 | 38842 ft | 485 kts | 120° |
| 2026-04-12 19:16 | 8.31731 | 1.56901 | 38849 ft | 486 kts | 120° |
| 2026-04-12 19:17 | 8.28358 | 1.62766 | 38842 ft | 486 kts | 120° |
| 2026-04-12 19:17 | 8.24958 | 1.68675 | 38835 ft | 487 kts | 120° |
| 2026-04-12 19:18 | 8.21554 | 1.74590 | 38839 ft | 487 kts | 120° |
| 2026-04-12 19:18 | 8.18146 | 1.80507 | 38835 ft | 487 kts | 120° |
| 2026-04-12 19:19 | 8.14755 | 1.86394 | 38829 ft | 487 kts | 120° |
| 2026-04-12 19:19 | 8.11351 | 1.92301 | 38833 ft | 486 kts | 120° |
| 2026-04-12 19:20 | 8.07955 | 1.98191 | 38828 ft | 485 kts | 120° |
| 2026-04-12 19:20 | 8.04566 | 2.04066 | 38828 ft | 484 kts | 120° |
| 2026-04-12 19:21 | 8.01184 | 2.09927 | 38822 ft | 482 kts | 120° |
| 2026-04-12 19:21 | 7.97810 | 2.15773 | 38818 ft | 481 kts | 120° |
| 2026-04-12 19:22 | 7.94461 | 2.21573 | 38819 ft | 480 kts | 120° |
| 2026-04-12 19:22 | 7.91094 | 2.27404 | 38824 ft | 480 kts | 120° |
| 2026-04-12 19:23 | 7.87629 | 2.33178 | 38821 ft | 480 kts | 126° |
| 2026-04-12 19:23 | 7.83278 | 2.38297 | 38835 ft | 481 kts | 136° |
| 2026-04-12 19:24 | 7.78239 | 2.42672 | 38833 ft | 481 kts | 140° |
| 2026-04-12 19:24 | 7.73061 | 2.46981 | 38832 ft | 483 kts | 140° |
| 2026-04-12 19:25 | 7.67897 | 2.51324 | 38832 ft | 484 kts | 140° |
| 2026-04-12 19:25 | 7.62739 | 2.55700 | 38824 ft | 484 kts | 140° |
| 2026-04-12 19:26 | 7.57580 | 2.60084 | 38832 ft | 485 kts | 140° |
| 2026-04-12 19:26 | 7.52446 | 2.64442 | 38835 ft | 485 kts | 140° |
| 2026-04-12 19:27 | 7.47284 | 2.68821 | 38840 ft | 485 kts | 140° |
| 2026-04-12 19:27 | 7.42122 | 2.73199 | 38843 ft | 484 kts | 140° |
| 2026-04-12 19:28 | 7.36949 | 2.77565 | 38843 ft | 484 kts | 140° |
| 2026-04-12 19:28 | 7.31759 | 2.81891 | 38853 ft | 484 kts | 140° |
| 2026-04-12 19:29 | 7.26599 | 2.86188 | 38855 ft | 483 kts | 140° |
| 2026-04-12 19:29 | 7.21424 | 2.90504 | 38854 ft | 483 kts | 140° |
| 2026-04-12 19:30 | 7.16251 | 2.94821 | 38861 ft | 483 kts | 140° |
| 2026-04-12 19:30 | 7.11076 | 2.99139 | 38866 ft | 482 kts | 140° |
| 2026-04-12 19:31 | 7.05910 | 3.03447 | 38871 ft | 482 kts | 140° |
| 2026-04-12 19:31 | 7.00742 | 3.07756 | 38876 ft | 482 kts | 140° |
| 2026-04-12 19:32 | 6.95613 | 3.12032 | 38876 ft | 481 kts | 140° |
| 2026-04-12 19:32 | 6.90454 | 3.16331 | 38887 ft | 481 kts | 140° |
| 2026-04-12 19:33 | 6.85298 | 3.20626 | 38895 ft | 480 kts | 141° |
| 2026-04-12 19:33 | 6.80149 | 3.24915 | 38891 ft | 480 kts | 141° |
| 2026-04-12 19:34 | 6.75003 | 3.29200 | 38896 ft | 480 kts | 141° |
| 2026-04-12 19:34 | 6.69739 | 3.33272 | 38888 ft | 479 kts | 147° |
| 2026-04-12 19:35 | 6.63920 | 3.36521 | 38901 ft | 478 kts | 152° |
| 2026-04-12 19:35 | 6.58033 | 3.39631 | 38897 ft | 477 kts | 152° |
| 2026-04-12 19:36 | 6.52165 | 3.42761 | 38894 ft | 477 kts | 152° |
| 2026-04-12 19:36 | 6.46309 | 3.45915 | 38894 ft | 477 kts | 152° |
| 2026-04-12 19:37 | 6.40491 | 3.49058 | 38890 ft | 477 kts | 152° |
| 2026-04-12 19:37 | 6.34633 | 3.52221 | 38886 ft | 478 kts | 152° |
| 2026-04-12 19:38 | 6.28773 | 3.55382 | 38888 ft | 478 kts | 152° |
| 2026-04-12 19:38 | 6.22907 | 3.58545 | 38883 ft | 478 kts | 152° |
| 2026-04-12 19:39 | 6.17033 | 3.61712 | 38878 ft | 478 kts | 152° |
| 2026-04-12 19:39 | 6.12149 | 3.64344 | 38878 ft | 478 kts | 152° |
| 2026-04-12 19:40 | 6.05321 | 3.68024 | 38878 ft | 479 kts | 152° |
| 2026-04-12 19:40 | 5.99444 | 3.71190 | 38875 ft | 479 kts | 152° |
| 2026-04-12 19:41 | 5.93568 | 3.74355 | 38875 ft | 479 kts | 152° |
| 2026-04-12 19:41 | 5.87717 | 3.77506 | 38874 ft | 479 kts | 152° |
| 2026-04-12 19:42 | 5.81830 | 3.80676 | 38874 ft | 479 kts | 152° |
| 2026-04-12 19:42 | 5.75950 | 3.83841 | 38874 ft | 479 kts | 152° |
| 2026-04-12 19:43 | 5.67155 | 3.88574 | 38880 ft | 479 kts | 152° |
| 2026-04-12 19:43 | 5.61260 | 3.91746 | 38878 ft | 480 kts | 151° |
| 2026-04-12 19:44 | 5.55364 | 3.94920 | 38879 ft | 480 kts | 151° |
| 2026-04-12 19:44 | 5.49478 | 3.98088 | 38878 ft | 480 kts | 151° |
| 2026-04-12 19:45 | 5.43589 | 4.01256 | 38876 ft | 480 kts | 151° |
| 2026-04-12 19:45 | 5.37739 | 4.04402 | 38881 ft | 480 kts | 151° |
| 2026-04-12 19:46 | 5.31849 | 4.07570 | 38881 ft | 480 kts | 151° |
| 2026-04-12 19:46 | 5.25960 | 4.10736 | 38882 ft | 480 kts | 151° |
| 2026-04-12 19:47 | 5.20070 | 4.13902 | 38882 ft | 480 kts | 151° |
| 2026-04-12 19:47 | 5.14177 | 4.17070 | 38883 ft | 480 kts | 151° |
| 2026-04-12 19:48 | 5.08286 | 4.20235 | 38882 ft | 480 kts | 151° |
| 2026-04-12 19:48 | 5.02403 | 4.23395 | 38882 ft | 479 kts | 151° |
| 2026-04-12 19:49 | 4.96528 | 4.26550 | 38882 ft | 479 kts | 151° |
| 2026-04-12 19:49 | 4.90649 | 4.29707 | 38881 ft | 478 kts | 151° |
| 2026-04-12 19:50 | 4.84783 | 4.32857 | 38880 ft | 478 kts | 151° |
| 2026-04-12 19:50 | 4.78953 | 4.35986 | 38883 ft | 478 kts | 151° |
| 2026-04-12 19:51 | 4.73087 | 4.39134 | 38886 ft | 477 kts | 151° |
| 2026-04-12 19:51 | 4.67230 | 4.42277 | 38884 ft | 477 kts | 151° |
| 2026-04-12 19:52 | 4.61372 | 4.45420 | 38887 ft | 477 kts | 151° |
| 2026-04-12 19:52 | 4.55558 | 4.48539 | 38886 ft | 477 kts | 151° |
| 2026-04-12 19:53 | 4.49703 | 4.51680 | 38888 ft | 476 kts | 151° |
| 2026-04-12 19:53 | 4.43854 | 4.54815 | 38888 ft | 476 kts | 151° |
| 2026-04-12 19:54 | 4.38004 | 4.57958 | 38889 ft | 477 kts | 151° |
| 2026-04-12 19:54 | 4.32194 | 4.61084 | 38889 ft | 477 kts | 150° |
| 2026-04-12 19:55 | 4.26340 | 4.64234 | 38887 ft | 477 kts | 150° |
| 2026-04-12 19:55 | 4.20490 | 4.67381 | 38893 ft | 477 kts | 150° |
| 2026-04-12 19:56 | 4.14633 | 4.70531 | 38892 ft | 477 kts | 150° |
| 2026-04-12 19:56 | 4.08787 | 4.73674 | 38893 ft | 477 kts | 150° |
| 2026-04-12 19:57 | 4.02975 | 4.76799 | 38891 ft | 477 kts | 150° |
| 2026-04-12 19:57 | 3.97118 | 4.79945 | 38891 ft | 477 kts | 150° |
| 2026-04-12 19:58 | 3.91269 | 4.83080 | 38893 ft | 477 kts | 150° |
| 2026-04-12 19:58 | 3.85414 | 4.86216 | 38894 ft | 477 kts | 150° |
| 2026-04-12 19:59 | 3.80551 | 4.88823 | 38893 ft | 477 kts | 150° |
| 2026-04-12 19:59 | 3.74701 | 4.91959 | 38889 ft | 477 kts | 150° |
| 2026-04-12 20:00 | 3.68852 | 4.95094 | 38890 ft | 477 kts | 150° |
| 2026-04-12 20:00 | 3.62993 | 4.98234 | 38893 ft | 477 kts | 150° |
| 2026-04-12 20:01 | 3.57148 | 5.01365 | 38894 ft | 476 kts | 150° |
| 2026-04-12 20:01 | 3.51290 | 5.04504 | 38894 ft | 476 kts | 150° |
| 2026-04-12 20:02 | 3.45475 | 5.07618 | 38897 ft | 476 kts | 150° |
| 2026-04-12 20:02 | 3.39632 | 5.10748 | 38897 ft | 476 kts | 150° |
| 2026-04-12 20:03 | 3.33789 | 5.13877 | 38895 ft | 476 kts | 150° |
| 2026-04-12 20:03 | 3.27941 | 5.17008 | 38895 ft | 476 kts | 150° |
| 2026-04-12 20:04 | 3.22099 | 5.20135 | 38897 ft | 476 kts | 150° |
| 2026-04-12 20:04 | 3.16294 | 5.23243 | 38897 ft | 476 kts | 150° |
| 2026-04-12 20:05 | 3.10453 | 5.26369 | 38900 ft | 476 kts | 150° |
| 2026-04-12 20:05 | 3.04598 | 5.29502 | 38899 ft | 476 kts | 150° |
| 2026-04-12 20:06 | 2.98756 | 5.32628 | 38895 ft | 476 kts | 150° |
| 2026-04-12 20:06 | 2.92946 | 5.35737 | 38898 ft | 476 kts | 150° |
| 2026-04-12 20:07 | 2.87100 | 5.38865 | 38901 ft | 476 kts | 150° |
| 2026-04-12 20:07 | 2.81238 | 5.42000 | 38903 ft | 476 kts | 150° |
| 2026-04-12 20:08 | 2.75421 | 5.45112 | 38900 ft | 477 kts | 150° |
| 2026-04-12 20:08 | 2.69574 | 5.48239 | 38898 ft | 477 kts | 150° |
| 2026-04-12 20:09 | 2.63724 | 5.51368 | 38901 ft | 477 kts | 150° |
| 2026-04-12 20:09 | 2.57874 | 5.54497 | 38902 ft | 477 kts | 150° |
| 2026-04-12 20:10 | 2.52017 | 5.57628 | 38902 ft | 477 kts | 150° |
| 2026-04-12 20:10 | 2.46190 | 5.60747 | 38901 ft | 477 kts | 150° |
| 2026-04-12 20:11 | 2.40298 | 5.63901 | 38904 ft | 477 kts | 150° |
| 2026-04-12 20:11 | 2.34480 | 5.67016 | 38902 ft | 477 kts | 150° |
| 2026-04-12 20:12 | 2.28621 | 5.70152 | 38904 ft | 477 kts | 150° |
| 2026-04-12 20:12 | 2.22761 | 5.73287 | 38906 ft | 477 kts | 150° |
| 2026-04-12 20:13 | 2.16906 | 5.76421 | 38908 ft | 478 kts | 150° |
| 2026-04-12 20:14 | 2.08110 | 5.81127 | 38905 ft | 478 kts | 150° |
| 2026-04-12 20:14 | 2.02268 | 5.84253 | 38911 ft | 478 kts | 150° |
| 2026-04-12 20:15 | 1.96406 | 5.87389 | 38906 ft | 478 kts | 150° |
| 2026-04-12 20:15 | 1.90541 | 5.90527 | 38906 ft | 478 kts | 150° |
| 2026-04-12 20:16 | 1.84668 | 5.93668 | 38905 ft | 478 kts | 150° |
| 2026-04-12 20:16 | 1.78799 | 5.96808 | 38905 ft | 478 kts | 150° |
| 2026-04-12 20:17 | 1.72932 | 5.99946 | 38907 ft | 478 kts | 150° |
| 2026-04-12 20:17 | 1.67061 | 6.03069 | 38910 ft | 478 kts | 150° |
| 2026-04-12 20:18 | 1.61213 | 6.06162 | 38910 ft | 478 kts | 150° |
| 2026-04-12 20:18 | 1.55331 | 6.09277 | 38908 ft | 478 kts | 150° |
| 2026-04-12 20:19 | 1.49443 | 6.12398 | 38907 ft | 478 kts | 150° |
| 2026-04-12 20:19 | 1.43560 | 6.15517 | 38910 ft | 479 kts | 150° |
| 2026-04-12 20:20 | 1.37672 | 6.18644 | 38909 ft | 479 kts | 150° |
| 2026-04-12 20:20 | 1.31789 | 6.21771 | 38907 ft | 479 kts | 150° |
| 2026-04-12 20:21 | 1.25894 | 6.24903 | 38908 ft | 480 kts | 150° |
| 2026-04-12 20:21 | 1.20026 | 6.28021 | 38909 ft | 480 kts | 150° |
| 2026-04-12 20:22 | 1.14115 | 6.31162 | 38906 ft | 481 kts | 150° |
| 2026-04-12 20:22 | 1.08200 | 6.34304 | 38905 ft | 481 kts | 150° |
| 2026-04-12 20:23 | 1.02271 | 6.37454 | 38906 ft | 482 kts | 150° |
| 2026-04-12 20:23 | 0.96379 | 6.40583 | 38900 ft | 482 kts | 150° |
| 2026-04-12 20:24 | 0.90441 | 6.43738 | 38895 ft | 483 kts | 150° |
| 2026-04-12 20:24 | 0.84503 | 6.46892 | 38890 ft | 483 kts | 150° |
| 2026-04-12 20:25 | 0.78562 | 6.50047 | 38883 ft | 484 kts | 150° |
| 2026-04-12 20:25 | 0.72609 | 6.53210 | 38880 ft | 484 kts | 150° |
| 2026-04-12 20:26 | 0.66691 | 6.56353 | 38872 ft | 484 kts | 150° |
| 2026-04-12 20:26 | 0.60735 | 6.59517 | 38866 ft | 484 kts | 150° |
| 2026-04-12 20:27 | 0.54778 | 6.62681 | 38860 ft | 485 kts | 150° |
| 2026-04-12 20:27 | 0.48817 | 6.65847 | 38858 ft | 485 kts | 150° |
| 2026-04-12 20:28 | 0.42862 | 6.69010 | 38860 ft | 485 kts | 150° |
| 2026-04-12 20:28 | 0.36977 | 6.72236 | 38862 ft | 484 kts | 145° |
| 2026-04-12 20:29 | 0.31449 | 6.76065 | 38860 ft | 482 kts | 142° |
| 2026-04-12 20:29 | 0.25998 | 6.79976 | 38861 ft | 482 kts | 142° |
| 2026-04-12 20:30 | 0.20524 | 6.83873 | 38873 ft | 482 kts | 142° |
| 2026-04-12 20:30 | 0.15036 | 6.87748 | 38884 ft | 483 kts | 143° |
| 2026-04-12 20:31 | 0.09579 | 6.91592 | 38900 ft | 483 kts | 143° |
| 2026-04-12 20:31 | 0.04090 | 6.95460 | 38906 ft | 483 kts | 142° |
| 2026-04-12 20:32 | -0.01406 | 6.99334 | 38904 ft | 483 kts | 143° |
| 2026-04-12 20:32 | -0.06900 | 7.03208 | 38903 ft | 483 kts | 143° |
| 2026-04-12 20:33 | -0.12393 | 7.07081 | 38903 ft | 483 kts | 143° |
| 2026-04-12 20:33 | -0.17898 | 7.10962 | 38905 ft | 483 kts | 143° |
| 2026-04-12 20:34 | -0.23360 | 7.14813 | 38906 ft | 483 kts | 143° |
| 2026-04-12 20:34 | -0.28856 | 7.18688 | 38907 ft | 483 kts | 143° |
| 2026-04-12 20:35 | -0.34352 | 7.22564 | 38904 ft | 483 kts | 143° |
| 2026-04-12 20:35 | -0.39854 | 7.26444 | 38904 ft | 483 kts | 143° |
| 2026-04-12 20:36 | -0.45348 | 7.30323 | 38905 ft | 483 kts | 143° |
| 2026-04-12 20:36 | -0.50834 | 7.34213 | 38904 ft | 483 kts | 143° |
| 2026-04-12 20:37 | -0.56317 | 7.38103 | 38903 ft | 483 kts | 143° |
| 2026-04-12 20:37 | -0.61808 | 7.41997 | 38901 ft | 483 kts | 143° |
| 2026-04-12 20:38 | -0.67261 | 7.45863 | 38904 ft | 483 kts | 143° |
| 2026-04-12 20:38 | -0.72741 | 7.49743 | 38904 ft | 482 kts | 143° |
| 2026-04-12 20:39 | -0.78256 | 7.53575 | 38901 ft | 482 kts | 143° |
| 2026-04-12 20:39 | -0.83770 | 7.57413 | 38901 ft | 482 kts | 143° |
| 2026-04-12 20:40 | -0.89213 | 7.61247 | 38903 ft | 481 kts | 143° |
| 2026-04-12 20:40 | -0.94684 | 7.65107 | 38905 ft | 481 kts | 143° |
| 2026-04-12 20:41 | -1.00155 | 7.68959 | 38907 ft | 481 kts | 143° |
| 2026-04-12 20:41 | -1.05620 | 7.72813 | 38900 ft | 480 kts | 143° |
| 2026-04-12 20:42 | -1.10152 | 7.76024 | 38901 ft | 480 kts | 143° |
| 2026-04-12 20:42 | -1.15607 | 7.79892 | 38903 ft | 480 kts | 143° |
| 2026-04-12 20:43 | -1.21066 | 7.83761 | 38904 ft | 480 kts | 143° |
| 2026-04-12 20:43 | -1.26524 | 7.87629 | 38903 ft | 481 kts | 143° |
| 2026-04-12 20:44 | -1.31952 | 7.91476 | 38906 ft | 481 kts | 143° |
| 2026-04-12 20:44 | -1.37422 | 7.95344 | 38908 ft | 481 kts | 143° |
| 2026-04-12 20:45 | -1.42909 | 7.99204 | 38904 ft | 482 kts | 143° |
| 2026-04-12 20:45 | -1.48396 | 8.03065 | 38906 ft | 482 kts | 143° |
| 2026-04-12 20:46 | -1.53877 | 8.06927 | 38904 ft | 482 kts | 143° |
| 2026-04-12 20:46 | -1.59364 | 8.10793 | 38902 ft | 482 kts | 143° |
| 2026-04-12 20:47 | -1.64847 | 8.14657 | 38902 ft | 482 kts | 143° |
| 2026-04-12 20:47 | -1.70295 | 8.18497 | 38903 ft | 482 kts | 143° |
| 2026-04-12 20:48 | -1.75810 | 8.22382 | 38906 ft | 482 kts | 143° |
| 2026-04-12 20:48 | -1.81252 | 8.26217 | 38903 ft | 481 kts | 143° |
| 2026-04-12 20:49 | -1.86728 | 8.30078 | 38903 ft | 481 kts | 143° |
| 2026-04-12 20:49 | -1.92200 | 8.33936 | 38900 ft | 481 kts | 143° |
| 2026-04-12 20:50 | -1.97676 | 8.37798 | 38901 ft | 481 kts | 143° |
| 2026-04-12 20:50 | -2.03155 | 8.41663 | 38902 ft | 482 kts | 143° |
| 2026-04-12 20:51 | -2.08644 | 8.45534 | 38904 ft | 482 kts | 143° |
| 2026-04-12 20:51 | -2.14127 | 8.49403 | 38904 ft | 482 kts | 143° |
| 2026-04-12 20:52 | -2.19582 | 8.53254 | 38907 ft | 482 kts | 143° |
| 2026-04-12 20:52 | -2.25067 | 8.57127 | 38904 ft | 482 kts | 143° |
| 2026-04-12 20:53 | -2.30553 | 8.61002 | 38907 ft | 482 kts | 143° |
| 2026-04-12 20:53 | -2.36029 | 8.64870 | 38907 ft | 481 kts | 143° |
| 2026-04-12 20:54 | -2.41503 | 8.68737 | 38902 ft | 481 kts | 143° |
| 2026-04-12 20:54 | -2.46934 | 8.72573 | 38903 ft | 481 kts | 143° |
| 2026-04-12 20:55 | -2.52394 | 8.76431 | 38905 ft | 480 kts | 143° |
| 2026-04-12 20:55 | -2.57856 | 8.80291 | 38907 ft | 480 kts | 143° |
| 2026-04-12 20:56 | -2.63313 | 8.84148 | 38906 ft | 480 kts | 143° |
| 2026-04-12 20:56 | -2.68777 | 8.88010 | 38913 ft | 480 kts | 143° |
| 2026-04-12 20:57 | -2.74244 | 8.91875 | 38910 ft | 481 kts | 143° |
| 2026-04-12 20:57 | -2.79688 | 8.95724 | 38906 ft | 482 kts | 143° |
| 2026-04-12 20:58 | -2.85170 | 8.99597 | 38909 ft | 482 kts | 143° |
| 2026-04-12 20:58 | -2.90661 | 9.03477 | 38909 ft | 483 kts | 143° |
| 2026-04-12 20:59 | -2.96132 | 9.07344 | 38905 ft | 484 kts | 143° |
| 2026-04-12 20:59 | -3.01649 | 9.11245 | 38911 ft | 485 kts | 143° |
| 2026-04-12 21:00 | -3.07166 | 9.15146 | 38909 ft | 486 kts | 143° |
| 2026-04-12 21:00 | -3.12667 | 9.19036 | 38908 ft | 486 kts | 143° |
| 2026-04-12 21:01 | -3.18191 | 9.22943 | 38910 ft | 486 kts | 143° |
| 2026-04-12 21:01 | -3.23724 | 9.26857 | 38907 ft | 486 kts | 143° |
| 2026-04-12 21:02 | -3.29249 | 9.30767 | 38907 ft | 486 kts | 143° |
| 2026-04-12 21:02 | -3.34785 | 9.34685 | 38908 ft | 486 kts | 143° |
| 2026-04-12 21:03 | -3.40274 | 9.38570 | 38905 ft | 486 kts | 143° |
| 2026-04-12 21:03 | -3.45800 | 9.42486 | 38903 ft | 485 kts | 143° |
| 2026-04-12 21:04 | -3.51309 | 9.46391 | 38905 ft | 485 kts | 143° |
| 2026-04-12 21:04 | -3.56812 | 9.50294 | 38901 ft | 484 kts | 143° |
| 2026-04-12 21:05 | -3.62309 | 9.54191 | 38908 ft | 483 kts | 143° |
| 2026-04-12 21:05 | -3.67757 | 9.58056 | 38915 ft | 483 kts | 143° |
| 2026-04-12 21:06 | -3.73274 | 9.61970 | 38906 ft | 483 kts | 143° |
| 2026-04-12 21:06 | -3.78724 | 9.65838 | 38908 ft | 482 kts | 143° |
| 2026-04-12 21:07 | -3.84203 | 9.69725 | 38903 ft | 482 kts | 143° |
| 2026-04-12 21:07 | -3.89672 | 9.73602 | 38903 ft | 482 kts | 143° |
| 2026-04-12 21:08 | -3.95149 | 9.77483 | 38904 ft | 482 kts | 143° |
| 2026-04-12 21:08 | -4.00621 | 9.81363 | 38903 ft | 482 kts | 143° |
| 2026-04-12 21:09 | -4.06096 | 9.85247 | 38904 ft | 482 kts | 143° |
| 2026-04-12 21:09 | -4.11544 | 9.89112 | 38906 ft | 482 kts | 143° |
| 2026-04-12 21:10 | -4.17025 | 9.93002 | 38906 ft | 483 kts | 143° |
| 2026-04-12 21:10 | -4.22518 | 9.96901 | 38906 ft | 483 kts | 143° |
| 2026-04-12 21:11 | -4.28013 | 10.00798 | 38902 ft | 483 kts | 143° |
| 2026-04-12 21:11 | -4.33507 | 10.04694 | 38905 ft | 484 kts | 143° |
| 2026-04-12 21:12 | -4.39007 | 10.08596 | 38902 ft | 484 kts | 143° |
| 2026-04-12 21:12 | -4.44474 | 10.12477 | 38898 ft | 484 kts | 143° |
| 2026-04-12 21:13 | -4.49968 | 10.16377 | 38897 ft | 483 kts | 143° |
| 2026-04-12 21:13 | -4.55463 | 10.20279 | 38899 ft | 483 kts | 143° |
| 2026-04-12 21:14 | -4.60948 | 10.24175 | 38898 ft | 483 kts | 143° |
| 2026-04-12 21:14 | -4.66393 | 10.28045 | 38901 ft | 482 kts | 143° |
| 2026-04-12 21:15 | -4.71864 | 10.31951 | 38902 ft | 482 kts | 143° |
| 2026-04-12 21:15 | -4.77337 | 10.35864 | 38899 ft | 482 kts | 143° |
| 2026-04-12 21:16 | -4.82777 | 10.39752 | 38902 ft | 482 kts | 143° |
| 2026-04-12 21:16 | -4.88249 | 10.43658 | 38900 ft | 483 kts | 143° |
| 2026-04-12 21:17 | -4.93745 | 10.47556 | 38901 ft | 483 kts | 144° |
| 2026-04-12 21:17 | -4.99236 | 10.51446 | 38898 ft | 483 kts | 143° |
| 2026-04-12 21:18 | -5.04727 | 10.55343 | 38897 ft | 484 kts | 143° |
| 2026-04-12 21:18 | -5.10227 | 10.59248 | 38895 ft | 484 kts | 143° |
| 2026-04-12 21:19 | -5.15727 | 10.63155 | 38898 ft | 485 kts | 143° |
| 2026-04-12 21:19 | -5.21236 | 10.67070 | 38899 ft | 485 kts | 143° |
| 2026-04-12 21:20 | -5.26709 | 10.70959 | 38896 ft | 486 kts | 143° |
| 2026-04-12 21:20 | -5.32238 | 10.74882 | 38898 ft | 486 kts | 143° |
| 2026-04-12 21:21 | -5.37785 | 10.78777 | 38899 ft | 487 kts | 143° |
| 2026-04-12 21:21 | -5.42413 | 10.82020 | 38898 ft | 487 kts | 143° |
| 2026-04-12 21:22 | -5.48873 | 10.86555 | 38897 ft | 487 kts | 143° |
| 2026-04-12 21:22 | -5.53531 | 10.89828 | 38894 ft | 488 kts | 143° |
| 2026-04-12 21:23 | -5.59065 | 10.93721 | 38896 ft | 488 kts | 143° |
| 2026-04-12 21:23 | -5.64628 | 10.97633 | 38893 ft | 488 kts | 143° |
| 2026-04-12 21:24 | -5.70197 | 11.01552 | 38892 ft | 488 kts | 144° |
| 2026-04-12 21:24 | -5.75773 | 11.05475 | 38892 ft | 489 kts | 144° |
| 2026-04-12 21:25 | -5.81306 | 11.09370 | 38893 ft | 489 kts | 144° |
| 2026-04-12 21:25 | -5.86878 | 11.13292 | 38893 ft | 489 kts | 144° |
| 2026-04-12 21:26 | -5.92462 | 11.17225 | 38893 ft | 489 kts | 144° |
| 2026-04-12 21:26 | -6.00790 | 11.23091 | 38892 ft | 489 kts | 144° |
| 2026-04-12 21:27 | -6.06360 | 11.27016 | 38894 ft | 489 kts | 144° |
| 2026-04-12 21:27 | -6.11929 | 11.30942 | 38893 ft | 489 kts | 144° |
| 2026-04-12 21:28 | -6.17501 | 11.34870 | 38892 ft | 489 kts | 144° |
| 2026-04-12 21:28 | -6.23073 | 11.38799 | 38890 ft | 489 kts | 144° |
| 2026-04-12 21:29 | -6.28636 | 11.42724 | 38890 ft | 488 kts | 144° |
| 2026-04-12 21:29 | -6.34199 | 11.46648 | 38891 ft | 488 kts | 144° |
| 2026-04-12 21:30 | -6.39756 | 11.50570 | 38889 ft | 488 kts | 144° |
| 2026-04-12 21:30 | -6.45277 | 11.54468 | 38891 ft | 488 kts | 144° |
| 2026-04-12 21:31 | -6.50836 | 11.58394 | 38891 ft | 488 kts | 144° |
| 2026-04-12 21:31 | -6.56400 | 11.62324 | 38890 ft | 487 kts | 144° |
| 2026-04-12 21:32 | -6.61957 | 11.66250 | 38891 ft | 487 kts | 144° |
| 2026-04-12 21:32 | -6.67504 | 11.70170 | 38891 ft | 487 kts | 144° |
| 2026-04-12 21:33 | -6.73008 | 11.74062 | 38892 ft | 487 kts | 144° |
| 2026-04-12 21:33 | -6.78564 | 11.77991 | 38893 ft | 487 kts | 144° |
| 2026-04-12 21:34 | -6.84110 | 11.81913 | 38892 ft | 487 kts | 144° |
| 2026-04-12 21:34 | -6.89657 | 11.85838 | 38893 ft | 487 kts | 144° |
| 2026-04-12 21:35 | -6.95206 | 11.89766 | 38893 ft | 488 kts | 144° |
| 2026-04-12 21:35 | -7.00761 | 11.93699 | 38890 ft | 488 kts | 144° |
| 2026-04-12 21:36 | -7.06317 | 11.97634 | 38896 ft | 488 kts | 144° |
| 2026-04-12 21:36 | -7.11834 | 12.01543 | 38898 ft | 488 kts | 144° |
| 2026-04-12 21:37 | -7.17395 | 12.05485 | 38892 ft | 489 kts | 144° |
| 2026-04-12 21:37 | -7.22970 | 12.09436 | 38891 ft | 489 kts | 144° |
| 2026-04-12 21:38 | -7.28535 | 12.13384 | 38895 ft | 489 kts | 144° |
| 2026-04-12 21:38 | -7.34083 | 12.17322 | 38893 ft | 490 kts | 144° |
| 2026-04-12 21:39 | -7.39652 | 12.21278 | 38899 ft | 490 kts | 144° |
| 2026-04-12 21:39 | -7.45227 | 12.25239 | 38898 ft | 490 kts | 144° |
| 2026-04-12 21:40 | -7.50804 | 12.29203 | 38895 ft | 490 kts | 144° |
| 2026-04-12 21:40 | -7.56381 | 12.33167 | 38900 ft | 490 kts | 144° |
| 2026-04-12 21:41 | -7.61955 | 12.37131 | 38902 ft | 490 kts | 144° |
| 2026-04-12 21:41 | -7.64765 | 12.39130 | 38318 ft | 499 kts | 144° |
| 2026-04-12 21:41 | -7.67616 | 12.41159 | 37560 ft | 500 kts | 144° |
| 2026-04-12 21:42 | -7.70416 | 12.43152 | 36790 ft | 498 kts | 144° |
| 2026-04-12 21:42 | -7.73244 | 12.45165 | 36014 ft | 497 kts | 145° |
| 2026-04-12 21:42 | -7.76065 | 12.47173 | 35161 ft | 498 kts | 145° |
| 2026-04-12 21:42 | -7.78917 | 12.49203 | 34229 ft | 501 kts | 145° |
| 2026-04-12 21:43 | -7.81759 | 12.51226 | 33534 ft | 498 kts | 145° |
| 2026-04-12 21:43 | -7.84569 | 12.53228 | 32844 ft | 493 kts | 145° |
| 2026-04-12 21:43 | -7.87356 | 12.55213 | 32226 ft | 488 kts | 145° |
| 2026-04-12 21:43 | -7.90120 | 12.57181 | 31628 ft | 483 kts | 145° |
| 2026-04-12 21:44 | -7.92856 | 12.59131 | 31040 ft | 479 kts | 145° |
| 2026-04-12 21:44 | -7.95535 | 12.61040 | 30453 ft | 475 kts | 145° |
| 2026-04-12 21:44 | -7.98225 | 12.62958 | 29853 ft | 471 kts | 146° |
| 2026-04-12 21:44 | -8.00897 | 12.64863 | 29185 ft | 468 kts | 145° |
| 2026-04-12 21:45 | -8.03540 | 12.66747 | 28567 ft | 463 kts | 145° |
| 2026-04-12 21:45 | -8.06166 | 12.68620 | 27978 ft | 459 kts | 145° |
| 2026-04-12 21:45 | -8.08763 | 12.70472 | 27394 ft | 455 kts | 145° |
| 2026-04-12 21:45 | -8.11334 | 12.72306 | 26842 ft | 451 kts | 145° |
| 2026-04-12 21:46 | -8.13882 | 12.74124 | 26289 ft | 447 kts | 145° |
| 2026-04-12 21:46 | -8.16417 | 12.75933 | 25740 ft | 444 kts | 145° |
| 2026-04-12 21:46 | -8.18929 | 12.77725 | 25173 ft | 441 kts | 145° |
| 2026-04-12 21:46 | -8.21432 | 12.79511 | 24650 ft | 439 kts | 145° |
| 2026-04-12 21:47 | -8.23884 | 12.81262 | 24103 ft | 436 kts | 144° |
| 2026-04-12 21:47 | -8.26355 | 12.83027 | 23561 ft | 434 kts | 144° |
| 2026-04-12 21:47 | -8.28819 | 12.84787 | 22952 ft | 432 kts | 144° |
| 2026-04-12 21:47 | -8.31268 | 12.86537 | 22392 ft | 428 kts | 144° |
| 2026-04-12 21:48 | -8.33692 | 12.88269 | 21857 ft | 424 kts | 144° |
| 2026-04-12 21:48 | -8.36090 | 12.89982 | 21352 ft | 420 kts | 144° |
| 2026-04-12 21:48 | -8.38464 | 12.91679 | 20838 ft | 416 kts | 144° |
| 2026-04-12 21:48 | -8.40780 | 12.93344 | 20345 ft | 409 kts | 142° |
| 2026-04-12 21:49 | -8.42870 | 12.95272 | 19839 ft | 406 kts | 131° |
| 2026-04-12 21:49 | -8.44571 | 12.97528 | 19354 ft | 402 kts | 122° |
| 2026-04-12 21:49 | -8.45879 | 13.00003 | 18848 ft | 396 kts | 114° |
| 2026-04-12 21:49 | -8.46980 | 13.02539 | 18374 ft | 393 kts | 113° |
| 2026-04-12 21:50 | -8.48067 | 13.05066 | 17833 ft | 391 kts | 113° |
| 2026-04-12 21:50 | -8.49151 | 13.07581 | 17316 ft | 388 kts | 114° |
| 2026-04-12 21:50 | -8.50216 | 13.10037 | 16830 ft | 385 kts | 114° |
| 2026-04-12 21:50 | -8.51290 | 13.12500 | 16348 ft | 381 kts | 114° |
| 2026-04-12 21:51 | -8.52362 | 13.14948 | 15859 ft | 379 kts | 114° |
| 2026-04-12 21:51 | -8.53426 | 13.17370 | 15383 ft | 376 kts | 114° |
| 2026-04-12 21:51 | -8.54484 | 13.19779 | 14912 ft | 374 kts | 114° |
| 2026-04-12 21:51 | -8.55539 | 13.22179 | 14434 ft | 372 kts | 114° |
| 2026-04-12 21:52 | -8.56587 | 13.24562 | 13928 ft | 370 kts | 114° |
| 2026-04-12 21:52 | -8.57631 | 13.26937 | 13419 ft | 369 kts | 114° |
| 2026-04-12 21:52 | -8.58668 | 13.29294 | 12906 ft | 366 kts | 114° |
| 2026-04-12 21:52 | -8.59686 | 13.31611 | 12424 ft | 363 kts | 114° |
| 2026-04-12 21:53 | -8.60710 | 13.33941 | 11945 ft | 361 kts | 114° |
| 2026-04-12 21:53 | -8.61725 | 13.36253 | 11452 ft | 358 kts | 114° |
| 2026-04-12 21:53 | -8.62733 | 13.38548 | 11015 ft | 355 kts | 114° |
| 2026-04-12 21:53 | -8.63732 | 13.40822 | 10664 ft | 350 kts | 113° |
| 2026-04-12 21:54 | -8.64704 | 13.43037 | 10513 ft | 339 kts | 113° |
| 2026-04-12 21:54 | -8.65647 | 13.45184 | 10369 ft | 329 kts | 113° |
| 2026-04-12 21:54 | -8.66561 | 13.47268 | 10219 ft | 320 kts | 113° |
| 2026-04-12 21:54 | -8.67438 | 13.49268 | 10098 ft | 311 kts | 113° |
| 2026-04-12 21:55 | -8.68303 | 13.51240 | 9899 ft | 304 kts | 113° |
| 2026-04-12 21:55 | -8.69146 | 13.53162 | 9809 ft | 295 kts | 113° |
| 2026-04-12 21:55 | -8.69966 | 13.55032 | 9670 ft | 287 kts | 113° |
| 2026-04-12 21:55 | -8.70765 | 13.56855 | 9539 ft | 279 kts | 113° |
| 2026-04-12 21:56 | -8.71543 | 13.58629 | 9343 ft | 274 kts | 113° |
| 2026-04-12 21:56 | -8.72455 | 13.60265 | 9045 ft | 265 kts | 130° |
| 2026-04-12 21:56 | -8.73780 | 13.61538 | 8734 ft | 261 kts | 136° |
| 2026-04-12 21:56 | -8.75121 | 13.62774 | 8416 ft | 259 kts | 135° |
| 2026-04-12 21:57 | -8.76433 | 13.64005 | 8101 ft | 257 kts | 135° |
| 2026-04-12 21:57 | -8.77733 | 13.65238 | 7798 ft | 256 kts | 135° |
| 2026-04-12 21:57 | -8.79009 | 13.66458 | 7499 ft | 254 kts | 134° |
| 2026-04-12 21:57 | -8.80290 | 13.67690 | 7194 ft | 253 kts | 134° |
| 2026-04-12 21:58 | -8.81561 | 13.68916 | 6901 ft | 252 kts | 134° |
| 2026-04-12 21:58 | -8.82833 | 13.70146 | 6598 ft | 252 kts | 134° |
| 2026-04-12 21:58 | -8.84095 | 13.71365 | 6297 ft | 251 kts | 134° |
| 2026-04-12 21:58 | -8.85352 | 13.72581 | 5982 ft | 249 kts | 135° |
| 2026-04-12 21:59 | -8.86806 | 13.73461 | 5679 ft | 249 kts | 167° |
| 2026-04-12 21:59 | -8.88534 | 13.73285 | 5430 ft | 258 kts | 202° |
| 2026-04-12 21:59 | -8.89976 | 13.72188 | 5168 ft | 263 kts | 228° |
| 2026-04-12 21:59 | -8.91088 | 13.70710 | 4851 ft | 264 kts | 234° |
| 2026-04-12 22:00 | -8.92145 | 13.69197 | 4512 ft | 261 kts | 233° |
| 2026-04-12 22:00 | -8.93211 | 13.67723 | 4179 ft | 258 kts | 233° |
| 2026-04-12 22:00 | -8.94266 | 13.66292 | 3852 ft | 255 kts | 233° |
| 2026-04-12 22:00 | -8.95325 | 13.64862 | 3540 ft | 252 kts | 233° |
| 2026-04-12 22:01 | -8.96365 | 13.63457 | 3269 ft | 246 kts | 233° |
| 2026-04-12 22:01 | -8.97374 | 13.62092 | 2915 ft | 234 kts | 233° |
| 2026-04-12 22:01 | -8.98299 | 13.60840 | 2648 ft | 210 kts | 232° |
| 2026-04-12 22:01 | -8.99132 | 13.59714 | 2361 ft | 191 kts | 232° |
| 2026-04-12 22:02 | -8.99891 | 13.58689 | 2136 ft | 174 kts | 232° |
| 2026-04-12 22:02 | -9.00588 | 13.57746 | 1909 ft | 159 kts | 232° |
| 2026-04-12 22:02 | -9.01216 | 13.56897 | 1726 ft | 143 kts | 232° |
| 2026-04-12 22:02 | -9.01806 | 13.56101 | 1574 ft | 144 kts | 232° |
| 2026-04-12 22:03 | -9.02406 | 13.55289 | 1373 ft | 143 kts | 232° |
| 2026-04-12 22:03 | -9.03000 | 13.54486 | 1181 ft | 142 kts | 232° |
| 2026-04-12 22:03 | -9.03596 | 13.53680 | 1002 ft | 143 kts | 233° |
| 2026-04-12 22:03 | -9.04205 | 13.52870 | 803 ft | 145 kts | 232° |
| 2026-04-12 22:04 | -9.04813 | 13.52066 | 641 ft | 143 kts | 236° |
| 2026-04-12 22:04 | -9.05201 | 13.51533 | 573 ft | 139 kts | 237° |
| 2026-04-12 22:04 | -9.05686 | 13.50864 | 569 ft | 87 kts | 230° |
| 2026-04-12 22:04 | -9.05995 | 13.50457 | 559 ft | 70 kts | 233° |
| 2026-04-12 22:05 | -9.06237 | 13.50120 | 564 ft | 38 kts | 240° |
| 2026-04-12 22:05 | -9.06289 | 13.49950 | 558 ft | 19 kts | 269° |
| 2026-04-12 22:05 | -9.06286 | 13.49834 | 550 ft | 15 kts | 272° |
| 2026-04-12 22:05 | -9.06229 | 13.49780 | 546 ft | 13 kts | 26° |
| 2026-04-12 22:06 | -9.06186 | 13.49860 | 547 ft | 13 kts | 61° |
| 2026-04-12 22:06 | -9.06136 | 13.49936 | 547 ft | 13 kts | 54° |
| 2026-04-12 22:06 | -9.06082 | 13.50005 | 547 ft | 10 kts | 41° |
| 2026-04-12 22:06 | -9.06012 | 13.49991 | 545 ft | 12 kts | 322° |
| 2026-04-12 22:07 | -9.05939 | 13.49934 | 544 ft | 14 kts | 322° |
| 2026-04-12 22:07 | -9.05858 | 13.49869 | 543 ft | 15 kts | 322° |
| 2026-04-12 22:07 | -9.05772 | 13.49801 | 543 ft | 16 kts | 322° |
| 2026-04-12 22:07 | -9.05681 | 13.49730 | 543 ft | 17 kts | 326° |
| 2026-04-12 22:08 | -9.05591 | 13.49736 | 542 ft | 13 kts | 30° |
| 2026-04-12 22:08 | -9.05542 | 13.49766 | 542 ft | 4 kts | 31° |
| 2026-04-12 22:08 | -9.05535 | 13.49769 | 543 ft | 0 kts | 31° |